<?xml version="1.0" encoding="UTF-8"?>
<gpx creator="Garmin Connect" version="1.1"
  xsi:schemaLocation="http://www.topografix.com/GPX/1/1 http://www.topografix.com/GPX/11.xsd"
  xmlns:ns3="http://www.garmin.com/xmlschemas/TrackPointExtension/v1"
  xmlns="http://www.topografix.com/GPX/1/1"
  xmlns:xsi="http://www.w3.org/2001/XMLSchema-instance" xmlns:ns2="http://www.garmin.com/xmlschemas/GpxExtensions/v3">
  <metadata>
    <name>S - Dag 6</name>
    <link href="connect.garmin.com">
      <text>Garmin Connect</text>
    </link>
    <time>2025-01-31T19:17:59.000Z</time>
  </metadata>
  <wpt lat="58.688379" lon="16.801478">
    <ele>0.0</ele>
    <name>Watermeer</name>
    <type>GENERIC</type>
  </wpt>
  <wpt lat="58.724068" lon="16.827342">
    <ele>0.0</ele>
    <name>Dag 6 kamperen</name>
    <type>GENERIC</type>
  </wpt>
  <wpt lat="58.723779" lon="16.827052">
    <ele>0.0</ele>
    <name>LAATSTE Waterme</name>
    <type>GENERIC</type>
  </wpt>
  <wpt lat="58.66078800484939" lon="16.72621368109198">
    <ele>0.0</ele>
    <name>Kampeerplek</name>
    <type>CAMPSITE</type>
  </wpt>
  <wpt lat="58.66361890940772" lon="16.73430806127892">
    <ele>0.0</ele>
    <name>Watertap</name>
    <type>WATER</type>
  </wpt>
  <wpt lat="58.68764124020922" lon="16.79685737399268">
    <ele>0.0</ele>
    <name>Waterbron</name>
    <type>WATER</type>
  </wpt>
  <trk>
    <name>S - Dag 6</name>
    <trkseg>
      <trkpt lat="58.65991786122322" lon="16.716813873499632">
        <ele>70.24</ele>
        <time>2025-01-31T19:17:59.000Z</time>
      </trkpt>
      <trkpt lat="58.65986597724259" lon="16.717220982536674">
        <ele>70.27</ele>
        <time>2025-01-31T19:17:59.029Z</time>
      </trkpt>
      <trkpt lat="58.65982691757381" lon="16.717457938939333">
        <ele>70.39</ele>
        <time>2025-01-31T19:17:59.076Z</time>
      </trkpt>
      <trkpt lat="58.65980696864426" lon="16.717784916982055">
        <ele>70.59</ele>
        <time>2025-01-31T19:17:59.145Z</time>
      </trkpt>
      <trkpt lat="58.659724993631244" lon="16.718109967187047">
        <ele>70.76</ele>
        <time>2025-01-31T19:17:59.240Z</time>
      </trkpt>
      <trkpt lat="58.65963698364794" lon="16.718406938016415">
        <ele>71.84</ele>
        <time>2025-01-31T19:17:59.358Z</time>
      </trkpt>
      <trkpt lat="58.6595269292593" lon="16.718854950740933">
        <ele>72.68</ele>
        <time>2025-01-31T19:17:59.511Z</time>
      </trkpt>
      <trkpt lat="58.659344958141446" lon="16.719310926273465">
        <ele>73.85</ele>
        <time>2025-01-31T19:17:59.704Z</time>
      </trkpt>
      <trkpt lat="58.65920992568135" lon="16.719522988423705">
        <ele>74.44</ele>
        <time>2025-01-31T19:17:59.920Z</time>
      </trkpt>
      <trkpt lat="58.65907397121191" lon="16.71987997367978">
        <ele>74.42</ele>
        <time>2025-01-31T19:18:00.167Z</time>
      </trkpt>
      <trkpt lat="58.659010771662" lon="16.72020141966641">
        <ele>74.96</ele>
        <time>2025-01-31T19:18:00.438Z</time>
      </trkpt>
      <trkpt lat="58.65894799120724" lon="16.72052093781531">
        <ele>75.16</ele>
        <time>2025-01-31T19:18:00.733Z</time>
      </trkpt>
      <trkpt lat="58.65890893153846" lon="16.72081899829209">
        <ele>75.2</ele>
        <time>2025-01-31T19:18:01.049Z</time>
      </trkpt>
      <trkpt lat="58.65890893153846" lon="16.721075987443328">
        <ele>75.28</ele>
        <time>2025-01-31T19:18:01.383Z</time>
      </trkpt>
      <trkpt lat="58.658976992592216" lon="16.72131495550275">
        <ele>75.47</ele>
        <time>2025-01-31T19:18:01.736Z</time>
      </trkpt>
      <trkpt lat="58.65908897481859" lon="16.72159692272544">
        <ele>75.63</ele>
        <time>2025-01-31T19:18:02.114Z</time>
      </trkpt>
      <trkpt lat="58.6591989453882" lon="16.721794987097383">
        <ele>75.8</ele>
        <time>2025-01-31T19:18:02.512Z</time>
      </trkpt>
      <trkpt lat="58.65930497646332" lon="16.721952985972166">
        <ele>76.02</ele>
        <time>2025-01-31T19:18:02.928Z</time>
      </trkpt>
      <trkpt lat="58.65950698032975" lon="16.722342995926738">
        <ele>76.29</ele>
        <time>2025-01-31T19:18:03.382Z</time>
      </trkpt>
      <trkpt lat="58.659664979204535" lon="16.722513986751437">
        <ele>76.44</ele>
        <time>2025-01-31T19:18:03.860Z</time>
      </trkpt>
      <trkpt lat="58.65975298918784" lon="16.722698975354433">
        <ele>76.58</ele>
        <time>2025-01-31T19:18:04.356Z</time>
      </trkpt>
      <trkpt lat="58.65988173522055" lon="16.722896369174123">
        <ele>76.63</ele>
        <time>2025-01-31T19:18:04.874Z</time>
      </trkpt>
      <trkpt lat="58.660009978339076" lon="16.723092924803495">
        <ele>76.51</ele>
        <time>2025-01-31T19:18:05.414Z</time>
      </trkpt>
      <trkpt lat="58.660091953352094" lon="16.72318696975708">
        <ele>76.52</ele>
        <time>2025-01-31T19:18:05.967Z</time>
      </trkpt>
      <trkpt lat="58.66016294807196" lon="16.72316794283688">
        <ele>76.55</ele>
        <time>2025-01-31T19:18:06.529Z</time>
      </trkpt>
      <trkpt lat="58.660246934741735" lon="16.723197950050235">
        <ele>76.57</ele>
        <time>2025-01-31T19:18:07.103Z</time>
      </trkpt>
      <trkpt lat="58.660327987745404" lon="16.72331596724689">
        <ele>76.55</ele>
        <time>2025-01-31T19:18:07.690Z</time>
      </trkpt>
      <trkpt lat="58.6604939494282" lon="16.723759956657887">
        <ele>76.51</ele>
        <time>2025-01-31T19:18:08.315Z</time>
      </trkpt>
      <trkpt lat="58.66059998050332" lon="16.724103949964046">
        <ele>76.51</ele>
        <time>2025-01-31T19:18:08.968Z</time>
      </trkpt>
      <trkpt lat="58.66074196994305" lon="16.72447199933231">
        <ele>76.45</ele>
        <time>2025-01-31T19:18:09.653Z</time>
      </trkpt>
      <trkpt lat="58.660804918035865" lon="16.725050937384367">
        <ele>76.34</ele>
        <time>2025-01-31T19:18:10.379Z</time>
      </trkpt>
      <trkpt lat="58.66079645231366" lon="16.725634904578328">
        <ele>75.88</ele>
        <time>2025-01-31T19:18:11.146Z</time>
      </trkpt>
      <trkpt lat="58.66078798659146" lon="16.726213674992323">
        <ele>75.44</ele>
        <time>2025-01-31T19:18:11.953Z</time>
      </trkpt>
      <trkpt lat="58.66078798659146" lon="16.7262149322778">
        <ele>75.17</ele>
        <time>2025-01-31T19:18:12.760Z</time>
      </trkpt>
      <trkpt lat="58.661041958257556" lon="16.72645398415625">
        <ele>75.13</ele>
        <time>2025-01-31T19:18:13.605Z</time>
      </trkpt>
      <trkpt lat="58.66115997545421" lon="16.727003920823336">
        <ele>74.89</ele>
        <time>2025-01-31T19:18:14.491Z</time>
      </trkpt>
      <trkpt lat="58.66127899847925" lon="16.727258982136846">
        <ele>74.73</ele>
        <time>2025-01-31T19:18:15.401Z</time>
      </trkpt>
      <trkpt lat="58.66141595877707" lon="16.727437935769558">
        <ele>74.53</ele>
        <time>2025-01-31T19:18:16.333Z</time>
      </trkpt>
      <trkpt lat="58.66151075810194" lon="16.72780405730009">
        <ele>74.26</ele>
        <time>2025-01-31T19:18:17.294Z</time>
      </trkpt>
      <trkpt lat="58.66160497069359" lon="16.7281679995358">
        <ele>73.68</ele>
        <time>2025-01-31T19:18:18.283Z</time>
      </trkpt>
      <trkpt lat="58.66177495568991" lon="16.728347958996892">
        <ele>73.59</ele>
        <time>2025-01-31T19:18:19.298Z</time>
      </trkpt>
      <trkpt lat="58.66189297288656" lon="16.72855398617685">
        <ele>73.31</ele>
        <time>2025-01-31T19:18:20.334Z</time>
      </trkpt>
      <trkpt lat="58.66214895620942" lon="16.728870989754796">
        <ele>73.11</ele>
        <time>2025-01-31T19:18:21.411Z</time>
      </trkpt>
      <trkpt lat="58.66226797923446" lon="16.72906997613609">
        <ele>72.89</ele>
        <time>2025-01-31T19:18:22.509Z</time>
      </trkpt>
      <trkpt lat="58.662307960912585" lon="16.72954699024558">
        <ele>72.64</ele>
        <time>2025-01-31T19:18:23.641Z</time>
      </trkpt>
      <trkpt lat="58.66223093122244" lon="16.730090975761414">
        <ele>72.33</ele>
        <time>2025-01-31T19:18:24.812Z</time>
      </trkpt>
      <trkpt lat="58.66225993260741" lon="16.73025199212134">
        <ele>71.93</ele>
        <time>2025-01-31T19:18:25.995Z</time>
      </trkpt>
      <trkpt lat="58.66237996146083" lon="16.73059497959912">
        <ele>71.85</ele>
        <time>2025-01-31T19:18:27.207Z</time>
      </trkpt>
      <trkpt lat="58.662520945072174" lon="16.730805952101946">
        <ele>71.96</ele>
        <time>2025-01-31T19:18:28.443Z</time>
      </trkpt>
      <trkpt lat="58.66274197585881" lon="16.731227980926633">
        <ele>71.78</ele>
        <time>2025-01-31T19:18:29.720Z</time>
      </trkpt>
      <trkpt lat="58.66279696114361" lon="16.731422943994403">
        <ele>71.87</ele>
        <time>2025-01-31T19:18:31.013Z</time>
      </trkpt>
      <trkpt lat="58.662781370803714" lon="16.73196424730122">
        <ele>71.92</ele>
        <time>2025-01-31T19:18:32.344Z</time>
      </trkpt>
      <trkpt lat="58.66276594810188" lon="16.732501946389675">
        <ele>72.09</ele>
        <time>2025-01-31T19:18:33.712Z</time>
      </trkpt>
      <trkpt lat="58.66279595531523" lon="16.732957921922207">
        <ele>72.33</ele>
        <time>2025-01-31T19:18:35.112Z</time>
      </trkpt>
      <trkpt lat="58.6629409622401" lon="16.733252964913845">
        <ele>72.61</ele>
        <time>2025-01-31T19:18:36.540Z</time>
      </trkpt>
      <trkpt lat="58.662994941696525" lon="16.733440971001983">
        <ele>72.84</ele>
        <time>2025-01-31T19:18:37.983Z</time>
      </trkpt>
      <trkpt lat="58.66305495612323" lon="16.733749927952886">
        <ele>73.07</ele>
        <time>2025-01-31T19:18:39.449Z</time>
      </trkpt>
      <trkpt lat="58.66323893889785" lon="16.734182937070727">
        <ele>73.27</ele>
        <time>2025-01-31T19:18:40.954Z</time>
      </trkpt>
      <trkpt lat="58.66324497386813" lon="16.73437999561429">
        <ele>73.59</ele>
        <time>2025-01-31T19:18:42.473Z</time>
      </trkpt>
      <trkpt lat="58.663210943341255" lon="16.734524918720126">
        <ele>73.92</ele>
        <time>2025-01-31T19:18:44.003Z</time>
      </trkpt>
      <trkpt lat="58.663255954161286" lon="16.734524918720126">
        <ele>74.21</ele>
        <time>2025-01-31T19:18:45.539Z</time>
      </trkpt>
      <trkpt lat="58.66351797245443" lon="16.734457947313786">
        <ele>74.49</ele>
        <time>2025-01-31T19:18:47.110Z</time>
      </trkpt>
      <trkpt lat="58.663618890568614" lon="16.734307995066047">
        <ele>74.74</ele>
        <time>2025-01-31T19:18:48.698Z</time>
      </trkpt>
      <trkpt lat="58.66362098604441" lon="16.734304977580905">
        <ele>75.02</ele>
        <time>2025-01-31T19:18:50.287Z</time>
      </trkpt>
      <trkpt lat="58.6638043820858" lon="16.734597086906433">
        <ele>75.41</ele>
        <time>2025-01-31T19:18:51.908Z</time>
      </trkpt>
      <trkpt lat="58.663986939936876" lon="16.734887938946486">
        <ele>75.76</ele>
        <time>2025-01-31T19:18:53.560Z</time>
      </trkpt>
      <trkpt lat="58.664097245782614" lon="16.7352740932256">
        <ele>76.01</ele>
        <time>2025-01-31T19:18:55.243Z</time>
      </trkpt>
      <trkpt lat="58.66420755162835" lon="16.73566016368568">
        <ele>76.17</ele>
        <time>2025-01-31T19:18:56.957Z</time>
      </trkpt>
      <trkpt lat="58.66431693546474" lon="16.736042965203524">
        <ele>76.34</ele>
        <time>2025-01-31T19:18:58.701Z</time>
      </trkpt>
      <trkpt lat="58.66439220495522" lon="16.736330799758434">
        <ele>76.41</ele>
        <time>2025-01-31T19:19:00.468Z</time>
      </trkpt>
      <trkpt lat="58.66446697153151" lon="16.73661695793271">
        <ele>76.49</ele>
        <time>2025-01-31T19:19:02.257Z</time>
      </trkpt>
      <trkpt lat="58.66450997069478" lon="16.736708991229534">
        <ele>76.49</ele>
        <time>2025-01-31T19:19:04.054Z</time>
      </trkpt>
      <trkpt lat="58.66453796625137" lon="16.736774956807494">
        <ele>76.43</ele>
        <time>2025-01-31T19:19:05.857Z</time>
      </trkpt>
      <trkpt lat="58.66467693820596" lon="16.73713194206357">
        <ele>76.29</ele>
        <time>2025-01-31T19:19:07.691Z</time>
      </trkpt>
      <trkpt lat="58.664822867140174" lon="16.73753502778709">
        <ele>76.09</ele>
        <time>2025-01-31T19:19:09.560Z</time>
      </trkpt>
      <trkpt lat="58.66496795788407" lon="16.737935934215784">
        <ele>75.81</ele>
        <time>2025-01-31T19:19:11.463Z</time>
      </trkpt>
      <trkpt lat="58.664952954277396" lon="16.738255955278873">
        <ele>75.52</ele>
        <time>2025-01-31T19:19:13.388Z</time>
      </trkpt>
      <trkpt lat="58.6648993100971" lon="16.738549824804068">
        <ele>75.24</ele>
        <time>2025-01-31T19:19:15.335Z</time>
      </trkpt>
      <trkpt lat="58.664845917373896" lon="16.738841934129596">
        <ele>74.95</ele>
        <time>2025-01-31T19:19:17.303Z</time>
      </trkpt>
      <trkpt lat="58.66482596844435" lon="16.7388969194144">
        <ele>74.64</ele>
        <time>2025-01-31T19:19:19.276Z</time>
      </trkpt>
      <trkpt lat="58.664798978716135" lon="16.73891393467784">
        <ele>74.33</ele>
        <time>2025-01-31T19:19:21.253Z</time>
      </trkpt>
      <trkpt lat="58.6647629365325" lon="16.738972943276167">
        <ele>74.01</ele>
        <time>2025-01-31T19:19:23.236Z</time>
      </trkpt>
      <trkpt lat="58.66480492986739" lon="16.73912599682808">
        <ele>73.6</ele>
        <time>2025-01-31T19:19:25.231Z</time>
      </trkpt>
      <trkpt lat="58.6647489387542" lon="16.739313919097185">
        <ele>73.26</ele>
        <time>2025-01-31T19:19:27.241Z</time>
      </trkpt>
      <trkpt lat="58.66473997011781" lon="16.739910962060094">
        <ele>72.83</ele>
        <time>2025-01-31T19:19:29.293Z</time>
      </trkpt>
      <trkpt lat="58.66471599787474" lon="16.740132998675108">
        <ele>72.44</ele>
        <time>2025-01-31T19:19:31.360Z</time>
      </trkpt>
      <trkpt lat="58.664749106392264" lon="16.740465508773923">
        <ele>71.94</ele>
        <time>2025-01-31T19:19:33.451Z</time>
      </trkpt>
      <trkpt lat="58.6647819634527" lon="16.740795923396945">
        <ele>71.49</ele>
        <time>2025-01-31T19:19:35.565Z</time>
      </trkpt>
      <trkpt lat="58.664859998971224" lon="16.74131995998323">
        <ele>71.02</ele>
        <time>2025-01-31T19:19:37.717Z</time>
      </trkpt>
      <trkpt lat="58.66485396400094" lon="16.741673927754164">
        <ele>70.61</ele>
        <time>2025-01-31T19:19:39.894Z</time>
      </trkpt>
      <trkpt lat="58.664928982034326" lon="16.742002917453647">
        <ele>70.15</ele>
        <time>2025-01-31T19:19:42.096Z</time>
      </trkpt>
      <trkpt lat="58.66497692652047" lon="16.74235294573009">
        <ele>69.65</ele>
        <time>2025-01-31T19:19:44.323Z</time>
      </trkpt>
      <trkpt lat="58.66493987850845" lon="16.742662908509374">
        <ele>69.34</ele>
        <time>2025-01-31T19:19:46.572Z</time>
      </trkpt>
      <trkpt lat="58.664902998134494" lon="16.742970943450928">
        <ele>69.1</ele>
        <time>2025-01-31T19:19:48.843Z</time>
      </trkpt>
      <trkpt lat="58.66494155488908" lon="16.743266908451915">
        <ele>68.79</ele>
        <time>2025-01-31T19:19:51.136Z</time>
      </trkpt>
      <trkpt lat="58.66497994400561" lon="16.743560945615172">
        <ele>68.5</ele>
        <time>2025-01-31T19:19:53.450Z</time>
      </trkpt>
      <trkpt lat="58.66498346440494" lon="16.74393117427826">
        <ele>68.29</ele>
        <time>2025-01-31T19:19:55.790Z</time>
      </trkpt>
      <trkpt lat="58.66498698480427" lon="16.744298972189426">
        <ele>68.1</ele>
        <time>2025-01-31T19:19:58.155Z</time>
      </trkpt>
      <trkpt lat="58.66491272114217" lon="16.744691664353013">
        <ele>68.04</ele>
        <time>2025-01-31T19:20:00.549Z</time>
      </trkpt>
      <trkpt lat="58.66483896039426" lon="16.74508192576468">
        <ele>67.97</ele>
        <time>2025-01-31T19:20:02.972Z</time>
      </trkpt>
      <trkpt lat="58.66484851576388" lon="16.745391469448805">
        <ele>67.89</ele>
        <time>2025-01-31T19:20:05.417Z</time>
      </trkpt>
      <trkpt lat="58.66485798731446" lon="16.745698917657137">
        <ele>67.74</ele>
        <time>2025-01-31T19:20:07.883Z</time>
      </trkpt>
      <trkpt lat="58.66484843194485" lon="16.746008461341262">
        <ele>67.52</ele>
        <time>2025-01-31T19:20:10.371Z</time>
      </trkpt>
      <trkpt lat="58.66483896039426" lon="16.746315993368626">
        <ele>67.33</ele>
        <time>2025-01-31T19:20:12.880Z</time>
      </trkpt>
      <trkpt lat="58.66490568034351" lon="16.746681611984968">
        <ele>67.11</ele>
        <time>2025-01-31T19:20:15.416Z</time>
      </trkpt>
      <trkpt lat="58.664971981197596" lon="16.747044967487454">
        <ele>66.87</ele>
        <time>2025-01-31T19:20:17.979Z</time>
      </trkpt>
      <trkpt lat="58.664990505203605" lon="16.747456770390272">
        <ele>66.57</ele>
        <time>2025-01-31T19:20:20.571Z</time>
      </trkpt>
      <trkpt lat="58.66500894539058" lon="16.747865974903107">
        <ele>66.31</ele>
        <time>2025-01-31T19:20:23.191Z</time>
      </trkpt>
      <trkpt lat="58.66501749493182" lon="16.74817300401628">
        <ele>66.07</ele>
        <time>2025-01-31T19:20:25.833Z</time>
      </trkpt>
      <trkpt lat="58.66502596065402" lon="16.74847793765366">
        <ele>65.76</ele>
        <time>2025-01-31T19:20:28.496Z</time>
      </trkpt>
      <trkpt lat="58.664993941783905" lon="16.748933997005224">
        <ele>65.42</ele>
        <time>2025-01-31T19:20:31.191Z</time>
      </trkpt>
      <trkpt lat="58.66494281217456" lon="16.749353259801865">
        <ele>65.14</ele>
        <time>2025-01-31T19:20:33.916Z</time>
      </trkpt>
      <trkpt lat="58.66489159874618" lon="16.749772606417537">
        <ele>65.06</ele>
        <time>2025-01-31T19:20:36.671Z</time>
      </trkpt>
      <trkpt lat="58.664840972051024" lon="16.750187929719687">
        <ele>65.08</ele>
        <time>2025-01-31T19:20:39.456Z</time>
      </trkpt>
      <trkpt lat="58.66480492986739" lon="16.75064197741449">
        <ele>65.14</ele>
        <time>2025-01-31T19:20:42.273Z</time>
      </trkpt>
      <trkpt lat="58.664717925712466" lon="16.750974990427494">
        <ele>65.25</ele>
        <time>2025-01-31T19:20:45.116Z</time>
      </trkpt>
      <trkpt lat="58.66464198566973" lon="16.751477988436818">
        <ele>65.38</ele>
        <time>2025-01-31T19:20:47.995Z</time>
      </trkpt>
      <trkpt lat="58.66454165428877" lon="16.751999091356993">
        <ele>65.7</ele>
        <time>2025-01-31T19:20:50.913Z</time>
      </trkpt>
      <trkpt lat="58.66444199346006" lon="16.75251692533493">
        <ele>66.05</ele>
        <time>2025-01-31T19:20:53.869Z</time>
      </trkpt>
      <trkpt lat="58.664398323744535" lon="16.753085805103183">
        <ele>66.46</ele>
        <time>2025-01-31T19:20:56.865Z</time>
      </trkpt>
      <trkpt lat="58.66435498930514" lon="16.75365099683404">
        <ele>66.78</ele>
        <time>2025-01-31T19:20:59.901Z</time>
      </trkpt>
      <trkpt lat="58.66416798904538" lon="16.75367597490549">
        <ele>67.06</ele>
        <time>2025-01-31T19:21:02.962Z</time>
      </trkpt>
      <trkpt lat="58.66405692882836" lon="16.75373498350382">
        <ele>67.27</ele>
        <time>2025-01-31T19:21:06.039Z</time>
      </trkpt>
      <trkpt lat="58.66393396630883" lon="16.753970934078097">
        <ele>67.43</ele>
        <time>2025-01-31T19:21:09.139Z</time>
      </trkpt>
      <trkpt lat="58.663791976869106" lon="16.754053998738527">
        <ele>67.55</ele>
        <time>2025-01-31T19:21:12.259Z</time>
      </trkpt>
      <trkpt lat="58.66368996910751" lon="16.754048969596624">
        <ele>67.62</ele>
        <time>2025-01-31T19:21:15.392Z</time>
      </trkpt>
      <trkpt lat="58.663554936647415" lon="16.753927934914827">
        <ele>67.63</ele>
        <time>2025-01-31T19:21:18.545Z</time>
      </trkpt>
      <trkpt lat="58.663468938320875" lon="16.754002952948213">
        <ele>67.58</ele>
        <time>2025-01-31T19:21:21.711Z</time>
      </trkpt>
      <trkpt lat="58.663253942504525" lon="16.754160951822996">
        <ele>67.48</ele>
        <time>2025-01-31T19:21:24.908Z</time>
      </trkpt>
      <trkpt lat="58.66313299164176" lon="16.75438399426639">
        <ele>67.34</ele>
        <time>2025-01-31T19:21:28.127Z</time>
      </trkpt>
      <trkpt lat="58.66306493058801" lon="16.75483695231378">
        <ele>67.12</ele>
        <time>2025-01-31T19:21:31.379Z</time>
      </trkpt>
      <trkpt lat="58.662977926433086" lon="16.755225956439972">
        <ele>66.79</ele>
        <time>2025-01-31T19:21:34.660Z</time>
      </trkpt>
      <trkpt lat="58.66281967610121" lon="16.75536165945232">
        <ele>66.42</ele>
        <time>2025-01-31T19:21:37.965Z</time>
      </trkpt>
      <trkpt lat="58.66266192868352" lon="16.755496943369508">
        <ele>66.04</ele>
        <time>2025-01-31T19:21:41.293Z</time>
      </trkpt>
      <trkpt lat="58.662461936473846" lon="16.75577899441123">
        <ele>65.66</ele>
        <time>2025-01-31T19:21:44.654Z</time>
      </trkpt>
      <trkpt lat="58.66238893009722" lon="16.755856946110725">
        <ele>65.41</ele>
        <time>2025-01-31T19:21:48.026Z</time>
      </trkpt>
      <trkpt lat="58.662435952574015" lon="16.756031960248947">
        <ele>65.19</ele>
        <time>2025-01-31T19:21:51.412Z</time>
      </trkpt>
      <trkpt lat="58.66231793537736" lon="16.75637997686863">
        <ele>65.05</ele>
        <time>2025-01-31T19:21:54.827Z</time>
      </trkpt>
      <trkpt lat="58.66217494010925" lon="16.756907952949405">
        <ele>64.97</ele>
        <time>2025-01-31T19:21:58.283Z</time>
      </trkpt>
      <trkpt lat="58.662026999518275" lon="16.757291927933693">
        <ele>64.98</ele>
        <time>2025-01-31T19:22:01.772Z</time>
      </trkpt>
      <trkpt lat="58.66207963787019" lon="16.757692247629166">
        <ele>64.86</ele>
        <time>2025-01-31T19:22:05.290Z</time>
      </trkpt>
      <trkpt lat="58.66213194094598" lon="16.758089968934655">
        <ele>64.77</ele>
        <time>2025-01-31T19:22:08.837Z</time>
      </trkpt>
      <trkpt lat="58.66207276470959" lon="16.758501268923283">
        <ele>64.79</ele>
        <time>2025-01-31T19:22:12.413Z</time>
      </trkpt>
      <trkpt lat="58.66201392374933" lon="16.758909970521927">
        <ele>64.82</ele>
        <time>2025-01-31T19:22:16.019Z</time>
      </trkpt>
      <trkpt lat="58.6618529073894" lon="16.759210964664817">
        <ele>64.89</ele>
        <time>2025-01-31T19:22:19.655Z</time>
      </trkpt>
      <trkpt lat="58.66169189102948" lon="16.75951204262674">
        <ele>64.85</ele>
        <time>2025-01-31T19:22:23.321Z</time>
      </trkpt>
      <trkpt lat="58.661531964316964" lon="16.759810941293836">
        <ele>64.68</ele>
        <time>2025-01-31T19:22:27.017Z</time>
      </trkpt>
      <trkpt lat="58.6614609695971" lon="16.759738940745592">
        <ele>64.67</ele>
        <time>2025-01-31T19:22:30.724Z</time>
      </trkpt>
      <trkpt lat="58.6612659227103" lon="16.759939938783646">
        <ele>64.55</ele>
        <time>2025-01-31T19:22:34.460Z</time>
      </trkpt>
      <trkpt lat="58.66116433404386" lon="16.760317711159587">
        <ele>64.36</ele>
        <time>2025-01-31T19:22:38.226Z</time>
      </trkpt>
      <trkpt lat="58.66106274537742" lon="16.760695483535528">
        <ele>64.21</ele>
        <time>2025-01-31T19:22:42.021Z</time>
      </trkpt>
      <trkpt lat="58.6609619949013" lon="16.761069986969233">
        <ele>64.1</ele>
        <time>2025-01-31T19:22:45.846Z</time>
      </trkpt>
      <trkpt lat="58.6607822868973" lon="16.761317839846015">
        <ele>63.99</ele>
        <time>2025-01-31T19:22:49.700Z</time>
      </trkpt>
      <trkpt lat="58.660602578893304" lon="16.761565692722797">
        <ele>63.81</ele>
        <time>2025-01-31T19:22:53.584Z</time>
      </trkpt>
      <trkpt lat="58.66042396053672" lon="16.761811953037977">
        <ele>63.71</ele>
        <time>2025-01-31T19:22:57.497Z</time>
      </trkpt>
      <trkpt lat="58.66033997386694" lon="16.762093920260668">
        <ele>63.57</ele>
        <time>2025-01-31T19:23:01.433Z</time>
      </trkpt>
      <trkpt lat="58.660090025514364" lon="16.762284273281693">
        <ele>63.56</ele>
        <time>2025-01-31T19:23:05.405Z</time>
      </trkpt>
      <trkpt lat="58.65984099917114" lon="16.762473955750465">
        <ele>63.55</ele>
        <time>2025-01-31T19:23:09.413Z</time>
      </trkpt>
      <trkpt lat="58.6597066372633" lon="16.76274008117616">
        <ele>63.47</ele>
        <time>2025-01-31T19:23:13.447Z</time>
      </trkpt>
      <trkpt lat="58.65957294590771" lon="16.763004949316382">
        <ele>63.4</ele>
        <time>2025-01-31T19:23:17.506Z</time>
      </trkpt>
      <trkpt lat="58.6593871191144" lon="16.763107124716043">
        <ele>63.31</ele>
        <time>2025-01-31T19:23:21.591Z</time>
      </trkpt>
      <trkpt lat="58.65920196287334" lon="16.763208964839578">
        <ele>63.15</ele>
        <time>2025-01-31T19:23:25.702Z</time>
      </trkpt>
      <trkpt lat="58.65901596844196" lon="16.763417925685644">
        <ele>62.93</ele>
        <time>2025-01-31T19:23:29.842Z</time>
      </trkpt>
      <trkpt lat="58.65888915024698" lon="16.763746328651905">
        <ele>62.59</ele>
        <time>2025-01-31T19:23:34.010Z</time>
      </trkpt>
      <trkpt lat="58.658762918785214" lon="16.7640729714185">
        <ele>62.15</ele>
        <time>2025-01-31T19:23:38.206Z</time>
      </trkpt>
      <trkpt lat="58.65872595459223" lon="16.764388969168067">
        <ele>61.66</ele>
        <time>2025-01-31T19:23:42.425Z</time>
      </trkpt>
      <trkpt lat="58.65858597680926" lon="16.764582926407456">
        <ele>61.09</ele>
        <time>2025-01-31T19:23:46.667Z</time>
      </trkpt>
      <trkpt lat="58.6584959551692" lon="16.76486698910594">
        <ele>60.49</ele>
        <time>2025-01-31T19:23:50.932Z</time>
      </trkpt>
      <trkpt lat="58.658439964056015" lon="16.765101933851838">
        <ele>59.95</ele>
        <time>2025-01-31T19:23:55.215Z</time>
      </trkpt>
      <trkpt lat="58.65856829099357" lon="16.765398234128952">
        <ele>59.52</ele>
        <time>2025-01-31T19:23:59.525Z</time>
      </trkpt>
      <trkpt lat="58.658695947378874" lon="16.765692941844463">
        <ele>59.17</ele>
        <time>2025-01-31T19:24:03.862Z</time>
      </trkpt>
      <trkpt lat="58.658652948215604" lon="16.765773994848132">
        <ele>58.85</ele>
        <time>2025-01-31T19:24:08.207Z</time>
      </trkpt>
      <trkpt lat="58.65868899039924" lon="16.765994941815734">
        <ele>58.71</ele>
        <time>2025-01-31T19:24:12.568Z</time>
      </trkpt>
      <trkpt lat="58.65853291936219" lon="16.766378916800022">
        <ele>58.58</ele>
        <time>2025-01-31T19:24:16.963Z</time>
      </trkpt>
      <trkpt lat="58.65836888551712" lon="16.766648227348924">
        <ele>58.59</ele>
        <time>2025-01-31T19:24:21.387Z</time>
      </trkpt>
      <trkpt lat="58.65820485167205" lon="16.766917537897825">
        <ele>58.77</ele>
        <time>2025-01-31T19:24:25.840Z</time>
      </trkpt>
      <trkpt lat="58.65804199129343" lon="16.767184920608997">
        <ele>59.0</ele>
        <time>2025-01-31T19:24:30.321Z</time>
      </trkpt>
      <trkpt lat="58.65787326358259" lon="16.76766528747976">
        <ele>59.46</ele>
        <time>2025-01-31T19:24:34.843Z</time>
      </trkpt>
      <trkpt lat="58.657704535871744" lon="16.768145570531487">
        <ele>60.11</ele>
        <time>2025-01-31T19:24:39.405Z</time>
      </trkpt>
      <trkpt lat="58.65753572434187" lon="16.768625183030963">
        <ele>60.83</ele>
        <time>2025-01-31T19:24:44.007Z</time>
      </trkpt>
      <trkpt lat="58.6575358081609" lon="16.768625183030963">
        <ele>61.41</ele>
        <time>2025-01-31T19:24:48.609Z</time>
      </trkpt>
      <trkpt lat="58.65753622725606" lon="16.768624177202582">
        <ele>62.05</ele>
        <time>2025-01-31T19:24:53.211Z</time>
      </trkpt>
      <trkpt lat="58.65753631107509" lon="16.768624177202582">
        <ele>62.72</ele>
        <time>2025-01-31T19:24:57.813Z</time>
      </trkpt>
      <trkpt lat="58.65753673017025" lon="16.76862308755517">
        <ele>63.41</ele>
        <time>2025-01-31T19:25:02.415Z</time>
      </trkpt>
      <trkpt lat="58.6575358081609" lon="16.768625853583217">
        <ele>64.13</ele>
        <time>2025-01-31T19:25:07.018Z</time>
      </trkpt>
      <trkpt lat="58.657368924468756" lon="16.76910093985498">
        <ele>64.99</ele>
        <time>2025-01-31T19:25:11.661Z</time>
      </trkpt>
      <trkpt lat="58.657364482060075" lon="16.769408974796534">
        <ele>65.83</ele>
        <time>2025-01-31T19:25:16.325Z</time>
      </trkpt>
      <trkpt lat="58.65735995583236" lon="16.769714998081326">
        <ele>66.57</ele>
        <time>2025-01-31T19:25:21.010Z</time>
      </trkpt>
      <trkpt lat="58.657451989129186" lon="16.769904932007194">
        <ele>67.28</ele>
        <time>2025-01-31T19:25:25.713Z</time>
      </trkpt>
      <trkpt lat="58.657474955543876" lon="16.77025998942554">
        <ele>67.99</ele>
        <time>2025-01-31T19:25:30.441Z</time>
      </trkpt>
      <trkpt lat="58.65760127082467" lon="16.770501052960753">
        <ele>68.62</ele>
        <time>2025-01-31T19:25:35.193Z</time>
      </trkpt>
      <trkpt lat="58.657726999372244" lon="16.770740943029523">
        <ele>69.17</ele>
        <time>2025-01-31T19:25:39.969Z</time>
      </trkpt>
      <trkpt lat="58.6577239818871" lon="16.77097194828093">
        <ele>69.62</ele>
        <time>2025-01-31T19:25:44.761Z</time>
      </trkpt>
      <trkpt lat="58.6577239818871" lon="16.771026933565736">
        <ele>70.03</ele>
        <time>2025-01-31T19:25:49.557Z</time>
      </trkpt>
      <trkpt lat="58.6576309427619" lon="16.771277971565723">
        <ele>70.35</ele>
        <time>2025-01-31T19:25:54.374Z</time>
      </trkpt>
      <trkpt lat="58.657687939703465" lon="16.77170494571328">
        <ele>70.67</ele>
        <time>2025-01-31T19:25:59.222Z</time>
      </trkpt>
      <trkpt lat="58.65769891999662" lon="16.771887922659516">
        <ele>70.89</ele>
        <time>2025-01-31T19:26:04.083Z</time>
      </trkpt>
      <trkpt lat="58.65782699547708" lon="16.77187694236636">
        <ele>71.15</ele>
        <time>2025-01-31T19:26:08.961Z</time>
      </trkpt>
      <trkpt lat="58.65808985196054" lon="16.771705197170377">
        <ele>71.31</ele>
        <time>2025-01-31T19:26:13.876Z</time>
      </trkpt>
      <trkpt lat="58.658351954072714" lon="16.771533954888582">
        <ele>71.48</ele>
        <time>2025-01-31T19:26:18.828Z</time>
      </trkpt>
      <trkpt lat="58.65840995684266" lon="16.77148399874568">
        <ele>71.64</ele>
        <time>2025-01-31T19:26:23.789Z</time>
      </trkpt>
      <trkpt lat="58.658656384795904" lon="16.771613163873553">
        <ele>71.85</ele>
        <time>2025-01-31T19:26:28.784Z</time>
      </trkpt>
      <trkpt lat="58.65890197455883" lon="16.7717419937253">
        <ele>71.99</ele>
        <time>2025-01-31T19:26:33.813Z</time>
      </trkpt>
      <trkpt lat="58.65907397121191" lon="16.77178893238306">
        <ele>72.15</ele>
        <time>2025-01-31T19:26:38.865Z</time>
      </trkpt>
      <trkpt lat="58.659193916246295" lon="16.77193796262145">
        <ele>72.31</ele>
        <time>2025-01-31T19:26:43.936Z</time>
      </trkpt>
      <trkpt lat="58.6592679284513" lon="16.772354962304235">
        <ele>72.45</ele>
        <time>2025-01-31T19:26:49.038Z</time>
      </trkpt>
      <trkpt lat="58.65944596007466" lon="16.77243492566049">
        <ele>72.63</ele>
        <time>2025-01-31T19:26:54.164Z</time>
      </trkpt>
      <trkpt lat="58.65962625481188" lon="16.77245395258069">
        <ele>72.76</ele>
        <time>2025-01-31T19:26:59.314Z</time>
      </trkpt>
      <trkpt lat="58.65980596281588" lon="16.77247297950089">
        <ele>72.89</ele>
        <time>2025-01-31T19:27:04.488Z</time>
      </trkpt>
      <trkpt lat="58.659956669434905" lon="16.772566605359316">
        <ele>73.02</ele>
        <time>2025-01-31T19:27:09.684Z</time>
      </trkpt>
      <trkpt lat="58.66010695695877" lon="16.772659979760647">
        <ele>73.14</ele>
        <time>2025-01-31T19:27:14.901Z</time>
      </trkpt>
      <trkpt lat="58.660210724920034" lon="16.772988382726908">
        <ele>73.23</ele>
        <time>2025-01-31T19:27:20.144Z</time>
      </trkpt>
      <trkpt lat="58.66031398996711" lon="16.77331494167447">
        <ele>73.33</ele>
        <time>2025-01-31T19:27:25.414Z</time>
      </trkpt>
      <trkpt lat="58.66051993332803" lon="16.773512922227383">
        <ele>73.5</ele>
        <time>2025-01-31T19:27:30.715Z</time>
      </trkpt>
      <trkpt lat="58.660720428451896" lon="16.77384266629815">
        <ele>73.76</ele>
        <time>2025-01-31T19:27:36.051Z</time>
      </trkpt>
      <trkpt lat="58.66092083975673" lon="16.77417241036892">
        <ele>74.15</ele>
        <time>2025-01-31T19:27:41.422Z</time>
      </trkpt>
      <trkpt lat="58.66111999377608" lon="16.774499975144863">
        <ele>74.45</ele>
        <time>2025-01-31T19:27:46.828Z</time>
      </trkpt>
      <trkpt lat="58.66127899847925" lon="16.77460491657257">
        <ele>74.67</ele>
        <time>2025-01-31T19:27:52.257Z</time>
      </trkpt>
      <trkpt lat="58.66130196489394" lon="16.77457993850112">
        <ele>74.83</ele>
        <time>2025-01-31T19:27:57.689Z</time>
      </trkpt>
      <trkpt lat="58.661383939906955" lon="16.774361925199628">
        <ele>74.95</ele>
        <time>2025-01-31T19:28:03.140Z</time>
      </trkpt>
      <trkpt lat="58.661425933241844" lon="16.774349939078093">
        <ele>75.1</ele>
        <time>2025-01-31T19:28:08.597Z</time>
      </trkpt>
      <trkpt lat="58.661444960162044" lon="16.77430199459195">
        <ele>75.21</ele>
        <time>2025-01-31T19:28:14.058Z</time>
      </trkpt>
      <trkpt lat="58.66145996376872" lon="16.77421398460865">
        <ele>75.3</ele>
        <time>2025-01-31T19:28:19.525Z</time>
      </trkpt>
      <trkpt lat="58.66147899068892" lon="16.774139972403646">
        <ele>75.38</ele>
        <time>2025-01-31T19:28:24.998Z</time>
      </trkpt>
      <trkpt lat="58.66150396876037" lon="16.774090938270092">
        <ele>75.45</ele>
        <time>2025-01-31T19:28:30.476Z</time>
      </trkpt>
      <trkpt lat="58.661514949053526" lon="16.773983985185623">
        <ele>75.51</ele>
        <time>2025-01-31T19:28:35.962Z</time>
      </trkpt>
      <trkpt lat="58.66156993433833" lon="16.77393796853721">
        <ele>75.55</ele>
        <time>2025-01-31T19:28:41.456Z</time>
      </trkpt>
      <trkpt lat="58.66163891740143" lon="16.773951966315508">
        <ele>75.61</ele>
        <time>2025-01-31T19:28:46.959Z</time>
      </trkpt>
      <trkpt lat="58.66174193099141" lon="16.773895975202322">
        <ele>75.66</ele>
        <time>2025-01-31T19:28:52.476Z</time>
      </trkpt>
      <trkpt lat="58.66182591766119" lon="16.77378692664206">
        <ele>75.73</ele>
        <time>2025-01-31T19:28:58.007Z</time>
      </trkpt>
      <trkpt lat="58.66195592097938" lon="16.773769995197654">
        <ele>75.76</ele>
        <time>2025-01-31T19:29:03.555Z</time>
      </trkpt>
      <trkpt lat="58.662072932347655" lon="16.77359397523105">
        <ele>75.9</ele>
        <time>2025-01-31T19:29:09.123Z</time>
      </trkpt>
      <trkpt lat="58.66222598589957" lon="16.773402951657772">
        <ele>76.09</ele>
        <time>2025-01-31T19:29:14.715Z</time>
      </trkpt>
      <trkpt lat="58.662288933992386" lon="16.773151997476816">
        <ele>76.22</ele>
        <time>2025-01-31T19:29:20.327Z</time>
      </trkpt>
      <trkpt lat="58.66251298226416" lon="16.773070944473147">
        <ele>76.44</ele>
        <time>2025-01-31T19:29:25.969Z</time>
      </trkpt>
      <trkpt lat="58.6626489367336" lon="16.77292694337666">
        <ele>76.61</ele>
        <time>2025-01-31T19:29:31.632Z</time>
      </trkpt>
      <trkpt lat="58.66288530640304" lon="16.772950999438763">
        <ele>76.83</ele>
        <time>2025-01-31T19:29:37.327Z</time>
      </trkpt>
      <trkpt lat="58.66312092170119" lon="16.772974971681833">
        <ele>77.04</ele>
        <time>2025-01-31T19:29:43.053Z</time>
      </trkpt>
      <trkpt lat="58.66323499940336" lon="16.773028951138258">
        <ele>77.19</ele>
        <time>2025-01-31T19:29:48.795Z</time>
      </trkpt>
      <trkpt lat="58.66329099051654" lon="16.772992992773652">
        <ele>77.33</ele>
        <time>2025-01-31T19:29:54.545Z</time>
      </trkpt>
      <trkpt lat="58.66339794360101" lon="16.77281898446381">
        <ele>77.45</ele>
        <time>2025-01-31T19:30:00.314Z</time>
      </trkpt>
      <trkpt lat="58.66349995136261" lon="16.772744972258806">
        <ele>77.56</ele>
        <time>2025-01-31T19:30:06.097Z</time>
      </trkpt>
      <trkpt lat="58.66365795023739" lon="16.772469962015748">
        <ele>77.67</ele>
        <time>2025-01-31T19:30:11.909Z</time>
      </trkpt>
      <trkpt lat="58.6638112552464" lon="16.772270053625107">
        <ele>77.7</ele>
        <time>2025-01-31T19:30:17.745Z</time>
      </trkpt>
      <trkpt lat="58.663963973522186" lon="16.772070983424783">
        <ele>77.73</ele>
        <time>2025-01-31T19:30:23.606Z</time>
      </trkpt>
      <trkpt lat="58.66423839703202" lon="16.771917175501585">
        <ele>77.71</ele>
        <time>2025-01-31T19:30:29.505Z</time>
      </trkpt>
      <trkpt lat="58.66451198235154" lon="16.77176395431161">
        <ele>77.63</ele>
        <time>2025-01-31T19:30:35.442Z</time>
      </trkpt>
      <trkpt lat="58.66464399732649" lon="16.771796979010105">
        <ele>77.56</ele>
        <time>2025-01-31T19:30:41.397Z</time>
      </trkpt>
      <trkpt lat="58.66477492265403" lon="16.771771917119622">
        <ele>77.52</ele>
        <time>2025-01-31T19:30:47.370Z</time>
      </trkpt>
      <trkpt lat="58.66497399285436" lon="16.771760936826468">
        <ele>77.51</ele>
        <time>2025-01-31T19:30:53.369Z</time>
      </trkpt>
      <trkpt lat="58.66506594233215" lon="16.771692959591746">
        <ele>77.53</ele>
        <time>2025-01-31T19:30:59.382Z</time>
      </trkpt>
      <trkpt lat="58.665184965357184" lon="16.771510988473892">
        <ele>77.59</ele>
        <time>2025-01-31T19:31:05.415Z</time>
      </trkpt>
      <trkpt lat="58.66528194397688" lon="16.771428929641843">
        <ele>77.65</ele>
        <time>2025-01-31T19:31:11.462Z</time>
      </trkpt>
      <trkpt lat="58.66536995396018" lon="16.771428929641843">
        <ele>77.68</ele>
        <time>2025-01-31T19:31:17.521Z</time>
      </trkpt>
      <trkpt lat="58.66564840078354" lon="16.771629760041833">
        <ele>77.7</ele>
        <time>2025-01-31T19:31:23.620Z</time>
      </trkpt>
      <trkpt lat="58.66592592559755" lon="16.77182991988957">
        <ele>77.79</ele>
        <time>2025-01-31T19:31:29.758Z</time>
      </trkpt>
      <trkpt lat="58.66597697138786" lon="16.771878954023123">
        <ele>77.92</ele>
        <time>2025-01-31T19:31:35.904Z</time>
      </trkpt>
      <trkpt lat="58.666020976379514" lon="16.771901920437813">
        <ele>78.08</ele>
        <time>2025-01-31T19:31:42.056Z</time>
      </trkpt>
      <trkpt lat="58.66605198942125" lon="16.77198096178472">
        <ele>78.28</ele>
        <time>2025-01-31T19:31:48.215Z</time>
      </trkpt>
      <trkpt lat="58.66604997776449" lon="16.77228095009923">
        <ele>78.56</ele>
        <time>2025-01-31T19:31:54.395Z</time>
      </trkpt>
      <trkpt lat="58.66607495583594" lon="16.77266894839704">
        <ele>78.91</ele>
        <time>2025-01-31T19:32:00.602Z</time>
      </trkpt>
      <trkpt lat="58.666106974706054" lon="16.77295192144811">
        <ele>79.26</ele>
        <time>2025-01-31T19:32:06.829Z</time>
      </trkpt>
      <trkpt lat="58.6661409214139" lon="16.773153925314546">
        <ele>79.58</ele>
        <time>2025-01-31T19:32:13.071Z</time>
      </trkpt>
      <trkpt lat="58.666133964434266" lon="16.773392977192998">
        <ele>79.91</ele>
        <time>2025-01-31T19:32:19.330Z</time>
      </trkpt>
      <trkpt lat="58.66609197109938" lon="16.77361099049449">
        <ele>80.2</ele>
        <time>2025-01-31T19:32:25.605Z</time>
      </trkpt>
      <trkpt lat="58.666086941957474" lon="16.77384694106877">
        <ele>80.43</ele>
        <time>2025-01-31T19:32:31.896Z</time>
      </trkpt>
      <trkpt lat="58.6661459505558" lon="16.774293947964907">
        <ele>80.58</ele>
        <time>2025-01-31T19:32:38.219Z</time>
      </trkpt>
      <trkpt lat="58.666197918355465" lon="16.77455898374319">
        <ele>80.78</ele>
        <time>2025-01-31T19:32:44.562Z</time>
      </trkpt>
      <trkpt lat="58.66634292528033" lon="16.774996938183904">
        <ele>80.99</ele>
        <time>2025-01-31T19:32:50.941Z</time>
      </trkpt>
      <trkpt lat="58.66630696691573" lon="16.775364987552166">
        <ele>81.03</ele>
        <time>2025-01-31T19:32:57.346Z</time>
      </trkpt>
      <trkpt lat="58.666324988007545" lon="16.77565399557352">
        <ele>81.07</ele>
        <time>2025-01-31T19:33:03.772Z</time>
      </trkpt>
      <trkpt lat="58.66645826026797" lon="16.775956247001886">
        <ele>81.08</ele>
        <time>2025-01-31T19:33:10.225Z</time>
      </trkpt>
      <trkpt lat="58.66659094579518" lon="16.77625698968768">
        <ele>81.04</ele>
        <time>2025-01-31T19:33:16.706Z</time>
      </trkpt>
      <trkpt lat="58.666689936071634" lon="16.77636293694377">
        <ele>81.02</ele>
        <time>2025-01-31T19:33:23.202Z</time>
      </trkpt>
      <trkpt lat="58.66691096685827" lon="16.776504926383495">
        <ele>81.0</ele>
        <time>2025-01-31T19:33:29.729Z</time>
      </trkpt>
      <trkpt lat="58.66709293797612" lon="16.776798963546753">
        <ele>80.92</ele>
        <time>2025-01-31T19:33:36.288Z</time>
      </trkpt>
      <trkpt lat="58.66723593324423" lon="16.777018988505006">
        <ele>80.88</ele>
        <time>2025-01-31T19:33:42.871Z</time>
      </trkpt>
      <trkpt lat="58.66730793379247" lon="16.777283940464258">
        <ele>80.72</ele>
        <time>2025-01-31T19:33:49.475Z</time>
      </trkpt>
      <trkpt lat="58.66740792989731" lon="16.77743699401617">
        <ele>80.62</ele>
        <time>2025-01-31T19:33:56.096Z</time>
      </trkpt>
      <trkpt lat="58.66748898290098" lon="16.777878971770406">
        <ele>80.48</ele>
        <time>2025-01-31T19:34:02.750Z</time>
      </trkpt>
      <trkpt lat="58.66761177778244" lon="16.77817870862782">
        <ele>80.31</ele>
        <time>2025-01-31T19:34:09.430Z</time>
      </trkpt>
      <trkpt lat="58.66773398593068" lon="16.778476936742663">
        <ele>80.15</ele>
        <time>2025-01-31T19:34:16.137Z</time>
      </trkpt>
      <trkpt lat="58.66783557459712" lon="16.77883635275066">
        <ele>80.0</ele>
        <time>2025-01-31T19:34:22.872Z</time>
      </trkpt>
      <trkpt lat="58.66793724708259" lon="16.779195684939623">
        <ele>79.91</ele>
        <time>2025-01-31T19:34:29.636Z</time>
      </trkpt>
      <trkpt lat="58.66803799755871" lon="16.779551999643445">
        <ele>79.82</ele>
        <time>2025-01-31T19:34:36.428Z</time>
      </trkpt>
      <trkpt lat="58.66823187097907" lon="16.779853077605367">
        <ele>79.74</ele>
        <time>2025-01-31T19:34:43.253Z</time>
      </trkpt>
      <trkpt lat="58.66842499002814" lon="16.780152982100844">
        <ele>79.63</ele>
        <time>2025-01-31T19:34:50.111Z</time>
      </trkpt>
      <trkpt lat="58.66862992756069" lon="16.78031492047012">
        <ele>79.43</ele>
        <time>2025-01-31T19:34:56.999Z</time>
      </trkpt>
      <trkpt lat="58.66887895390391" lon="16.78033797070384">
        <ele>79.25</ele>
        <time>2025-01-31T19:35:03.920Z</time>
      </trkpt>
      <trkpt lat="58.6689349450171" lon="16.780412988737226">
        <ele>79.05</ele>
        <time>2025-01-31T19:35:10.850Z</time>
      </trkpt>
      <trkpt lat="58.669118927791715" lon="16.78044492378831">
        <ele>78.82</ele>
        <time>2025-01-31T19:35:17.805Z</time>
      </trkpt>
      <trkpt lat="58.66934197023511" lon="16.780823953449726">
        <ele>78.53</ele>
        <time>2025-01-31T19:35:24.800Z</time>
      </trkpt>
      <trkpt lat="58.6695359274745" lon="16.780949933454394">
        <ele>78.2</ele>
        <time>2025-01-31T19:35:31.822Z</time>
      </trkpt>
      <trkpt lat="58.66978193633258" lon="16.78104892373085">
        <ele>77.81</ele>
        <time>2025-01-31T19:35:38.878Z</time>
      </trkpt>
      <trkpt lat="58.66994898766279" lon="16.781159983947873">
        <ele>77.4</ele>
        <time>2025-01-31T19:35:45.958Z</time>
      </trkpt>
      <trkpt lat="58.67018795572221" lon="16.781010953709483">
        <ele>77.05</ele>
        <time>2025-01-31T19:35:53.071Z</time>
      </trkpt>
      <trkpt lat="58.67037395015359" lon="16.780902994796634">
        <ele>76.73</ele>
        <time>2025-01-31T19:36:00.210Z</time>
      </trkpt>
      <trkpt lat="58.670596992596984" lon="16.780782965943217">
        <ele>76.43</ele>
        <time>2025-01-31T19:36:07.380Z</time>
      </trkpt>
      <trkpt lat="58.67078298702836" lon="16.780803920701146">
        <ele>76.01</ele>
        <time>2025-01-31T19:36:14.575Z</time>
      </trkpt>
      <trkpt lat="58.67097878828645" lon="16.780765866860747">
        <ele>75.45</ele>
        <time>2025-01-31T19:36:21.796Z</time>
      </trkpt>
      <trkpt lat="58.67117391899228" lon="16.780727980658412">
        <ele>74.84</ele>
        <time>2025-01-31T19:36:29.044Z</time>
      </trkpt>
      <trkpt lat="58.67135521955788" lon="16.780631337314844">
        <ele>74.11</ele>
        <time>2025-01-31T19:36:36.317Z</time>
      </trkpt>
      <trkpt lat="58.67153593339026" lon="16.78053494542837">
        <ele>73.4</ele>
        <time>2025-01-31T19:36:43.615Z</time>
      </trkpt>
      <trkpt lat="58.67171874269843" lon="16.78065111860633">
        <ele>72.7</ele>
        <time>2025-01-31T19:36:50.938Z</time>
      </trkpt>
      <trkpt lat="58.67190096527338" lon="16.78076695650816">
        <ele>72.04</ele>
        <time>2025-01-31T19:36:58.287Z</time>
      </trkpt>
      <trkpt lat="58.672061981633306" lon="16.780714988708496">
        <ele>71.41</ele>
        <time>2025-01-31T19:37:05.658Z</time>
      </trkpt>
      <trkpt lat="58.672213945537806" lon="16.780599988996983">
        <ele>70.79</ele>
        <time>2025-01-31T19:37:13.051Z</time>
      </trkpt>
      <trkpt lat="58.67239398881793" lon="16.780536957085133">
        <ele>70.19</ele>
        <time>2025-01-31T19:37:20.468Z</time>
      </trkpt>
      <trkpt lat="58.67245391942561" lon="16.780568975955248">
        <ele>69.65</ele>
        <time>2025-01-31T19:37:27.894Z</time>
      </trkpt>
      <trkpt lat="58.67247898131609" lon="16.780623961240053">
        <ele>69.16</ele>
        <time>2025-01-31T19:37:35.325Z</time>
      </trkpt>
      <trkpt lat="58.67254695855081" lon="16.780626978725195">
        <ele>68.69</ele>
        <time>2025-01-31T19:37:42.765Z</time>
      </trkpt>
      <trkpt lat="58.67259096354246" lon="16.780719934031367">
        <ele>68.26</ele>
        <time>2025-01-31T19:37:50.213Z</time>
      </trkpt>
      <trkpt lat="58.672687942162156" lon="16.781142968684435">
        <ele>67.88</ele>
        <time>2025-01-31T19:37:57.694Z</time>
      </trkpt>
      <trkpt lat="58.67287091910839" lon="16.781494924798608">
        <ele>67.5</ele>
        <time>2025-01-31T19:38:05.209Z</time>
      </trkpt>
      <trkpt lat="58.67295297794044" lon="16.781719978898764">
        <ele>67.21</ele>
        <time>2025-01-31T19:38:12.743Z</time>
      </trkpt>
      <trkpt lat="58.673094967380166" lon="16.781959952786565">
        <ele>66.93</ele>
        <time>2025-01-31T19:38:20.303Z</time>
      </trkpt>
      <trkpt lat="58.673177948221564" lon="16.781998928636312">
        <ele>66.73</ele>
        <time>2025-01-31T19:38:27.874Z</time>
      </trkpt>
      <trkpt lat="58.67324994876981" lon="16.78199691697955">
        <ele>66.58</ele>
        <time>2025-01-31T19:38:35.455Z</time>
      </trkpt>
      <trkpt lat="58.6733989790082" lon="16.782072940841317">
        <ele>66.47</ele>
        <time>2025-01-31T19:38:43.056Z</time>
      </trkpt>
      <trkpt lat="58.67347491905093" lon="16.782026924192905">
        <ele>66.42</ele>
        <time>2025-01-31T19:38:50.668Z</time>
      </trkpt>
      <trkpt lat="58.67372998036444" lon="16.782278968021274">
        <ele>66.51</ele>
        <time>2025-01-31T19:38:58.318Z</time>
      </trkpt>
      <trkpt lat="58.67387196980417" lon="16.78227092139423">
        <ele>66.51</ele>
        <time>2025-01-31T19:39:05.987Z</time>
      </trkpt>
      <trkpt lat="58.674059975892305" lon="16.782243931666017">
        <ele>66.42</ele>
        <time>2025-01-31T19:39:13.682Z</time>
      </trkpt>
      <trkpt lat="58.67417698726058" lon="16.782707953825593">
        <ele>66.48</ele>
        <time>2025-01-31T19:39:21.412Z</time>
      </trkpt>
      <trkpt lat="58.67419995367527" lon="16.782888919115067">
        <ele>66.55</ele>
        <time>2025-01-31T19:39:29.155Z</time>
      </trkpt>
      <trkpt lat="58.67423499003053" lon="16.782972989603877">
        <ele>66.59</ele>
        <time>2025-01-31T19:39:36.906Z</time>
      </trkpt>
      <trkpt lat="58.674298943951726" lon="16.783276917412877">
        <ele>66.64</ele>
        <time>2025-01-31T19:39:44.680Z</time>
      </trkpt>
      <trkpt lat="58.674292992800474" lon="16.783486967906356">
        <ele>66.69</ele>
        <time>2025-01-31T19:39:52.468Z</time>
      </trkpt>
      <trkpt lat="58.67435493506491" lon="16.783588975667953">
        <ele>66.68</ele>
        <time>2025-01-31T19:40:00.267Z</time>
      </trkpt>
      <trkpt lat="58.67443095892668" lon="16.783998934552073">
        <ele>66.7</ele>
        <time>2025-01-31T19:40:08.097Z</time>
      </trkpt>
      <trkpt lat="58.67443196475506" lon="16.78414293564856">
        <ele>66.72</ele>
        <time>2025-01-31T19:40:15.937Z</time>
      </trkpt>
      <trkpt lat="58.67458392865956" lon="16.78446195088327">
        <ele>66.7</ele>
        <time>2025-01-31T19:40:23.807Z</time>
      </trkpt>
      <trkpt lat="58.67460798472166" lon="16.78454694338143">
        <ele>66.69</ele>
        <time>2025-01-31T19:40:31.683Z</time>
      </trkpt>
      <trkpt lat="58.674638997763395" lon="16.784576950594783">
        <ele>66.65</ele>
        <time>2025-01-31T19:40:39.564Z</time>
      </trkpt>
      <trkpt lat="58.67469792254269" lon="16.784803932532668">
        <ele>66.62</ele>
        <time>2025-01-31T19:40:47.463Z</time>
      </trkpt>
      <trkpt lat="58.67472097277641" lon="16.78498196415603">
        <ele>66.58</ele>
        <time>2025-01-31T19:40:55.375Z</time>
      </trkpt>
      <trkpt lat="58.674771934747696" lon="16.7851079441607">
        <ele>66.49</ele>
        <time>2025-01-31T19:41:03.298Z</time>
      </trkpt>
      <trkpt lat="58.67483898997307" lon="16.785242976620793">
        <ele>66.34</ele>
        <time>2025-01-31T19:41:11.234Z</time>
      </trkpt>
      <trkpt lat="58.67490193806589" lon="16.785335931926966">
        <ele>66.16</ele>
        <time>2025-01-31T19:41:19.180Z</time>
      </trkpt>
      <trkpt lat="58.675113916397095" lon="16.785372979938984">
        <ele>65.95</ele>
        <time>2025-01-31T19:41:27.155Z</time>
      </trkpt>
      <trkpt lat="58.675199998542666" lon="16.78534892387688">
        <ele>65.71</ele>
        <time>2025-01-31T19:41:35.141Z</time>
      </trkpt>
      <trkpt lat="58.67531893774867" lon="16.785435928031802">
        <ele>65.43</ele>
        <time>2025-01-31T19:41:43.144Z</time>
      </trkpt>
      <trkpt lat="58.67557534016669" lon="16.785396868363023">
        <ele>65.07</ele>
        <time>2025-01-31T19:41:51.182Z</time>
      </trkpt>
      <trkpt lat="58.67583098821342" lon="16.785357976332307">
        <ele>64.68</ele>
        <time>2025-01-31T19:41:59.254Z</time>
      </trkpt>
      <trkpt lat="58.67602092213929" lon="16.785369962453842">
        <ele>64.35</ele>
        <time>2025-01-31T19:42:07.351Z</time>
      </trkpt>
      <trkpt lat="58.6762257758528" lon="16.785456631332636">
        <ele>64.02</ele>
        <time>2025-01-31T19:42:15.476Z</time>
      </trkpt>
      <trkpt lat="58.67642995901406" lon="16.785542964935303">
        <ele>63.71</ele>
        <time>2025-01-31T19:42:23.629Z</time>
      </trkpt>
      <trkpt lat="58.676591981202364" lon="16.785592921078205">
        <ele>63.38</ele>
        <time>2025-01-31T19:42:31.804Z</time>
      </trkpt>
      <trkpt lat="58.67681024596095" lon="16.785574397072196">
        <ele>63.06</ele>
        <time>2025-01-31T19:42:40.008Z</time>
      </trkpt>
      <trkpt lat="58.677027923986316" lon="16.78555595688522">
        <ele>62.79</ele>
        <time>2025-01-31T19:42:48.242Z</time>
      </trkpt>
      <trkpt lat="58.67722498252988" lon="16.785672968253493">
        <ele>62.64</ele>
        <time>2025-01-31T19:42:56.503Z</time>
      </trkpt>
      <trkpt lat="58.67725398391485" lon="16.785652935504913">
        <ele>62.53</ele>
        <time>2025-01-31T19:43:04.768Z</time>
      </trkpt>
      <trkpt lat="58.67742095142603" lon="16.785373985767365">
        <ele>62.57</ele>
        <time>2025-01-31T19:43:13.063Z</time>
      </trkpt>
      <trkpt lat="58.67748993448913" lon="16.785346996039152">
        <ele>62.64</ele>
        <time>2025-01-31T19:43:21.367Z</time>
      </trkpt>
      <trkpt lat="58.67752295918763" lon="16.785253956913948">
        <ele>62.76</ele>
        <time>2025-01-31T19:43:29.679Z</time>
      </trkpt>
      <trkpt lat="58.67767198942602" lon="16.78514893166721">
        <ele>63.08</ele>
        <time>2025-01-31T19:43:38.012Z</time>
      </trkpt>
      <trkpt lat="58.67770493030548" lon="16.78499897941947">
        <ele>63.37</ele>
        <time>2025-01-31T19:43:46.357Z</time>
      </trkpt>
      <trkpt lat="58.677712976932526" lon="16.78467887453735">
        <ele>63.68</ele>
        <time>2025-01-31T19:43:54.724Z</time>
      </trkpt>
      <trkpt lat="58.67772093974054" lon="16.784360948950052">
        <ele>64.12</ele>
        <time>2025-01-31T19:44:03.113Z</time>
      </trkpt>
      <trkpt lat="58.67778112180531" lon="16.784064061939716">
        <ele>64.73</ele>
        <time>2025-01-31T19:44:11.524Z</time>
      </trkpt>
      <trkpt lat="58.677840968593955" lon="16.783768935129046">
        <ele>65.4</ele>
        <time>2025-01-31T19:44:19.957Z</time>
      </trkpt>
      <trkpt lat="58.677967954427004" lon="16.783381942659616">
        <ele>66.24</ele>
        <time>2025-01-31T19:44:28.422Z</time>
      </trkpt>
      <trkpt lat="58.67800198495388" lon="16.783373979851604">
        <ele>67.21</ele>
        <time>2025-01-31T19:44:36.892Z</time>
      </trkpt>
      <trkpt lat="58.67818999104202" lon="16.783481938764453">
        <ele>68.51</ele>
        <time>2025-01-31T19:44:45.388Z</time>
      </trkpt>
      <trkpt lat="58.67835192941129" lon="16.783635998144746">
        <ele>69.89</ele>
        <time>2025-01-31T19:44:53.908Z</time>
      </trkpt>
      <trkpt lat="58.67847698740661" lon="16.78394495509565">
        <ele>71.34</ele>
        <time>2025-01-31T19:45:02.455Z</time>
      </trkpt>
      <trkpt lat="58.67856793105602" lon="16.784022990614176">
        <ele>72.65</ele>
        <time>2025-01-31T19:45:11.016Z</time>
      </trkpt>
      <trkpt lat="58.6786849424243" lon="16.783950990065932">
        <ele>73.98</ele>
        <time>2025-01-31T19:45:19.593Z</time>
      </trkpt>
      <trkpt lat="58.678722996264696" lon="16.78379693068564">
        <ele>75.2</ele>
        <time>2025-01-31T19:45:28.182Z</time>
      </trkpt>
      <trkpt lat="58.678893987089396" lon="16.78340599872172">
        <ele>76.53</ele>
        <time>2025-01-31T19:45:36.807Z</time>
      </trkpt>
      <trkpt lat="58.67892692796886" lon="16.782927978783846">
        <ele>77.76</ele>
        <time>2025-01-31T19:45:45.465Z</time>
      </trkpt>
      <trkpt lat="58.6790509801358" lon="16.78239698521793">
        <ele>79.1</ele>
        <time>2025-01-31T19:45:54.164Z</time>
      </trkpt>
      <trkpt lat="58.679107977077365" lon="16.782387932762504">
        <ele>80.4</ele>
        <time>2025-01-31T19:46:02.870Z</time>
      </trkpt>
      <trkpt lat="58.67913798429072" lon="16.78209699690342">
        <ele>81.54</ele>
        <time>2025-01-31T19:46:11.597Z</time>
      </trkpt>
      <trkpt lat="58.67921995930374" lon="16.781951989978552">
        <ele>82.79</ele>
        <time>2025-01-31T19:46:20.339Z</time>
      </trkpt>
      <trkpt lat="58.67934895679355" lon="16.78188099525869">
        <ele>84.07</ele>
        <time>2025-01-31T19:46:29.099Z</time>
      </trkpt>
      <trkpt lat="58.679426992312074" lon="16.781951989978552">
        <ele>85.25</ele>
        <time>2025-01-31T19:46:37.870Z</time>
      </trkpt>
      <trkpt lat="58.679513996466994" lon="16.78199398331344">
        <ele>86.36</ele>
        <time>2025-01-31T19:46:46.653Z</time>
      </trkpt>
      <trkpt lat="58.67956998758018" lon="16.78197395056486">
        <ele>87.3</ele>
        <time>2025-01-31T19:46:55.444Z</time>
      </trkpt>
      <trkpt lat="58.679688926786184" lon="16.78201594389975">
        <ele>88.24</ele>
        <time>2025-01-31T19:47:04.251Z</time>
      </trkpt>
      <trkpt lat="58.679819935932755" lon="16.78205198608339">
        <ele>89.04</ele>
        <time>2025-01-31T19:47:13.076Z</time>
      </trkpt>
      <trkpt lat="58.68013199418783" lon="16.78205592557788">
        <ele>89.73</ele>
        <time>2025-01-31T19:47:21.942Z</time>
      </trkpt>
      <trkpt lat="58.680201983079314" lon="16.782175954431295">
        <ele>90.16</ele>
        <time>2025-01-31T19:47:30.821Z</time>
      </trkpt>
      <trkpt lat="58.680164935067296" lon="16.782320961356163">
        <ele>90.47</ele>
        <time>2025-01-31T19:47:39.711Z</time>
      </trkpt>
      <trkpt lat="58.68017097003758" lon="16.7824019305408">
        <ele>90.62</ele>
        <time>2025-01-31T19:47:48.607Z</time>
      </trkpt>
      <trkpt lat="58.680202988907695" lon="16.782480971887708">
        <ele>90.67</ele>
        <time>2025-01-31T19:47:57.510Z</time>
      </trkpt>
      <trkpt lat="58.680270966142416" lon="16.7825089674443">
        <ele>90.61</ele>
        <time>2025-01-31T19:48:06.422Z</time>
      </trkpt>
      <trkpt lat="58.68039392866194" lon="16.782605946063995">
        <ele>90.43</ele>
        <time>2025-01-31T19:48:15.352Z</time>
      </trkpt>
      <trkpt lat="58.68055494502187" lon="16.78295999765396">
        <ele>90.06</ele>
        <time>2025-01-31T19:48:24.315Z</time>
      </trkpt>
      <trkpt lat="58.680632980540395" lon="16.783034931868315">
        <ele>89.73</ele>
        <time>2025-01-31T19:48:33.289Z</time>
      </trkpt>
      <trkpt lat="58.680741945281625" lon="16.783276917412877">
        <ele>89.32</ele>
        <time>2025-01-31T19:48:42.286Z</time>
      </trkpt>
      <trkpt lat="58.68080799467862" lon="16.78345092572272">
        <ele>88.9</ele>
        <time>2025-01-31T19:48:51.298Z</time>
      </trkpt>
      <trkpt lat="58.680808916687965" lon="16.7834519315511">
        <ele>88.49</ele>
        <time>2025-01-31T19:49:00.310Z</time>
      </trkpt>
      <trkpt lat="58.68080799467862" lon="16.78345092572272">
        <ele>88.9</ele>
        <time>2025-01-31T19:49:09.322Z</time>
      </trkpt>
      <trkpt lat="58.68085099384189" lon="16.78356098011136">
        <ele>87.62</ele>
        <time>2025-01-31T19:49:18.344Z</time>
      </trkpt>
      <trkpt lat="58.680892987176776" lon="16.78375099785626">
        <ele>87.17</ele>
        <time>2025-01-31T19:49:27.380Z</time>
      </trkpt>
      <trkpt lat="58.680914947763085" lon="16.784045957028866">
        <ele>86.67</ele>
        <time>2025-01-31T19:49:36.437Z</time>
      </trkpt>
      <trkpt lat="58.68097563274205" lon="16.784351393580437">
        <ele>86.24</ele>
        <time>2025-01-31T19:49:45.516Z</time>
      </trkpt>
      <trkpt lat="58.68103598244488" lon="16.78465498611331">
        <ele>85.78</ele>
        <time>2025-01-31T19:49:54.618Z</time>
      </trkpt>
      <trkpt lat="58.68101494386792" lon="16.784818936139345">
        <ele>85.37</ele>
        <time>2025-01-31T19:50:03.732Z</time>
      </trkpt>
      <trkpt lat="58.681086944416165" lon="16.78523492999375">
        <ele>84.93</ele>
        <time>2025-01-31T19:50:12.876Z</time>
      </trkpt>
      <trkpt lat="58.681148970499635" lon="16.78541195578873">
        <ele>84.54</ele>
        <time>2025-01-31T19:50:22.035Z</time>
      </trkpt>
      <trkpt lat="58.681192975491285" lon="16.785636926069856">
        <ele>84.11</ele>
        <time>2025-01-31T19:50:31.211Z</time>
      </trkpt>
      <trkpt lat="58.681258941069245" lon="16.78577397018671">
        <ele>83.71</ele>
        <time>2025-01-31T19:50:40.400Z</time>
      </trkpt>
      <trkpt lat="58.68136698380113" lon="16.78566592745483">
        <ele>83.38</ele>
        <time>2025-01-31T19:50:49.605Z</time>
      </trkpt>
      <trkpt lat="58.681620955467224" lon="16.785738933831453">
        <ele>82.95</ele>
        <time>2025-01-31T19:50:58.844Z</time>
      </trkpt>
      <trkpt lat="58.68172489106655" lon="16.78585452027619">
        <ele>82.53</ele>
        <time>2025-01-31T19:51:08.099Z</time>
      </trkpt>
      <trkpt lat="58.681726064532995" lon="16.785855861380696">
        <ele>82.16</ele>
        <time>2025-01-31T19:51:17.355Z</time>
      </trkpt>
      <trkpt lat="58.68172598071396" lon="16.785855777561665">
        <ele>81.77</ele>
        <time>2025-01-31T19:51:26.611Z</time>
      </trkpt>
      <trkpt lat="58.68172723799944" lon="16.785857202485204">
        <ele>81.36</ele>
        <time>2025-01-31T19:51:35.867Z</time>
      </trkpt>
      <trkpt lat="58.681727070361376" lon="16.78585703484714">
        <ele>80.92</ele>
        <time>2025-01-31T19:51:45.123Z</time>
      </trkpt>
      <trkpt lat="58.681726986542344" lon="16.78585695102811">
        <ele>80.44</ele>
        <time>2025-01-31T19:51:54.379Z</time>
      </trkpt>
      <trkpt lat="58.68187392130494" lon="16.785952923819423">
        <ele>79.84</ele>
        <time>2025-01-31T19:52:03.656Z</time>
      </trkpt>
      <trkpt lat="58.68196997791529" lon="16.78590497933328">
        <ele>79.26</ele>
        <time>2025-01-31T19:52:12.946Z</time>
      </trkpt>
      <trkpt lat="58.682028986513615" lon="16.78577095270157">
        <ele>78.6</ele>
        <time>2025-01-31T19:52:22.248Z</time>
      </trkpt>
      <trkpt lat="58.68208891712129" lon="16.78577095270157">
        <ele>77.86</ele>
        <time>2025-01-31T19:52:31.558Z</time>
      </trkpt>
      <trkpt lat="58.68214298039675" lon="16.786081921309233">
        <ele>77.07</ele>
        <time>2025-01-31T19:52:40.891Z</time>
      </trkpt>
      <trkpt lat="58.6821869853884" lon="16.786084938794374">
        <ele>76.26</ele>
        <time>2025-01-31T19:52:50.230Z</time>
      </trkpt>
      <trkpt lat="58.682249933481216" lon="16.786186946555972">
        <ele>75.38</ele>
        <time>2025-01-31T19:52:59.580Z</time>
      </trkpt>
      <trkpt lat="58.6823439784348" lon="16.786258947104216">
        <ele>74.46</ele>
        <time>2025-01-31T19:53:08.943Z</time>
      </trkpt>
      <trkpt lat="58.68247683160007" lon="16.786570753902197">
        <ele>73.46</ele>
        <time>2025-01-31T19:53:18.334Z</time>
      </trkpt>
      <trkpt lat="58.68260893039405" lon="16.786880968138576">
        <ele>72.49</ele>
        <time>2025-01-31T19:53:27.753Z</time>
      </trkpt>
      <trkpt lat="58.682635920122266" lon="16.787178944796324">
        <ele>71.55</ele>
        <time>2025-01-31T19:53:37.193Z</time>
      </trkpt>
      <trkpt lat="58.68274471722543" lon="16.787411542609334">
        <ele>70.64</ele>
        <time>2025-01-31T19:53:46.655Z</time>
      </trkpt>
      <trkpt lat="58.68285292759538" lon="16.7876429669559">
        <ele>69.74</ele>
        <time>2025-01-31T19:53:56.139Z</time>
      </trkpt>
      <trkpt lat="58.68289793841541" lon="16.787975979968905">
        <ele>68.85</ele>
        <time>2025-01-31T19:54:05.647Z</time>
      </trkpt>
      <trkpt lat="58.68290891870856" lon="16.78843698464334">
        <ele>67.95</ele>
        <time>2025-01-31T19:54:15.187Z</time>
      </trkpt>
      <trkpt lat="58.68309793062508" lon="16.78869497962296">
        <ele>66.99</ele>
        <time>2025-01-31T19:54:24.758Z</time>
      </trkpt>
      <trkpt lat="58.683233968913555" lon="16.788838980719447">
        <ele>66.09</ele>
        <time>2025-01-31T19:54:34.350Z</time>
      </trkpt>
      <trkpt lat="58.683300940319896" lon="16.78912396542728">
        <ele>65.31</ele>
        <time>2025-01-31T19:54:43.963Z</time>
      </trkpt>
      <trkpt lat="58.68349992670119" lon="16.789471982046962">
        <ele>64.67</ele>
        <time>2025-01-31T19:54:53.612Z</time>
      </trkpt>
      <trkpt lat="58.683607801795006" lon="16.789845982566476">
        <ele>64.23</ele>
        <time>2025-01-31T19:55:03.291Z</time>
      </trkpt>
      <trkpt lat="58.68371492251754" lon="16.79021797142923">
        <ele>63.9</ele>
        <time>2025-01-31T19:55:13.000Z</time>
      </trkpt>
      <trkpt lat="58.68383620865643" lon="16.79043598473072">
        <ele>63.54</ele>
        <time>2025-01-31T19:55:22.731Z</time>
      </trkpt>
      <trkpt lat="58.68395699188113" lon="16.79065299220383">
        <ele>63.29</ele>
        <time>2025-01-31T19:55:32.484Z</time>
      </trkpt>
      <trkpt lat="58.684114404022694" lon="16.79114785976708">
        <ele>63.16</ele>
        <time>2025-01-31T19:55:42.277Z</time>
      </trkpt>
      <trkpt lat="58.68427097797394" lon="16.79163996130228">
        <ele>63.08</ele>
        <time>2025-01-31T19:55:52.111Z</time>
      </trkpt>
      <trkpt lat="58.684369968250394" lon="16.79192092269659">
        <ele>62.95</ele>
        <time>2025-01-31T19:56:01.968Z</time>
      </trkpt>
      <trkpt lat="58.68452997878194" lon="16.792296934872866">
        <ele>62.78</ele>
        <time>2025-01-31T19:56:11.859Z</time>
      </trkpt>
      <trkpt lat="58.684604996815324" lon="16.792339934036136">
        <ele>62.64</ele>
        <time>2025-01-31T19:56:21.760Z</time>
      </trkpt>
      <trkpt lat="58.68470599874854" lon="16.792296934872866">
        <ele>62.51</ele>
        <time>2025-01-31T19:56:31.675Z</time>
      </trkpt>
      <trkpt lat="58.68474296294153" lon="16.792121920734644">
        <ele>62.51</ele>
        <time>2025-01-31T19:56:41.603Z</time>
      </trkpt>
      <trkpt lat="58.68477498181164" lon="16.791910948231816">
        <ele>62.5</ele>
        <time>2025-01-31T19:56:51.547Z</time>
      </trkpt>
      <trkpt lat="58.68480993434787" lon="16.791794942691922">
        <ele>62.47</ele>
        <time>2025-01-31T19:57:01.500Z</time>
      </trkpt>
      <trkpt lat="58.685059463605285" lon="16.79149386473">
        <ele>62.35</ele>
        <time>2025-01-31T19:57:11.492Z</time>
      </trkpt>
      <trkpt lat="58.68530798703432" lon="16.791193960234523">
        <ele>62.53</ele>
        <time>2025-01-31T19:57:21.524Z</time>
      </trkpt>
      <trkpt lat="58.68535794317722" lon="16.79114593192935">
        <ele>62.7</ele>
        <time>2025-01-31T19:57:31.563Z</time>
      </trkpt>
      <trkpt lat="58.68542097508907" lon="16.791022969409823">
        <ele>62.94</ele>
        <time>2025-01-31T19:57:41.614Z</time>
      </trkpt>
      <trkpt lat="58.685422986745834" lon="16.791009977459908">
        <ele>63.13</ele>
        <time>2025-01-31T19:57:51.666Z</time>
      </trkpt>
      <trkpt lat="58.68548392318189" lon="16.790959937497973">
        <ele>63.37</ele>
        <time>2025-01-31T19:58:01.727Z</time>
      </trkpt>
      <trkpt lat="58.685595989227295" lon="16.79077796638012">
        <ele>63.64</ele>
        <time>2025-01-31T19:58:11.808Z</time>
      </trkpt>
      <trkpt lat="58.685662960633636" lon="16.790808979421854">
        <ele>63.88</ele>
        <time>2025-01-31T19:58:21.898Z</time>
      </trkpt>
      <trkpt lat="58.685728926211596" lon="16.790893971920013">
        <ele>64.1</ele>
        <time>2025-01-31T19:58:31.998Z</time>
      </trkpt>
      <trkpt lat="58.68580193258822" lon="16.7910189460963">
        <ele>64.27</ele>
        <time>2025-01-31T19:58:42.111Z</time>
      </trkpt>
      <trkpt lat="58.6858219653368" lon="16.791040990501642">
        <ele>64.38</ele>
        <time>2025-01-31T19:58:52.228Z</time>
      </trkpt>
      <trkpt lat="58.68587996810675" lon="16.7911209538579">
        <ele>64.47</ele>
        <time>2025-01-31T19:59:02.354Z</time>
      </trkpt>
      <trkpt lat="58.68594593368471" lon="16.791560919955373">
        <ele>64.44</ele>
        <time>2025-01-31T19:59:12.512Z</time>
      </trkpt>
      <trkpt lat="58.68589296005666" lon="16.792017985135317">
        <ele>64.24</ele>
        <time>2025-01-31T19:59:22.703Z</time>
      </trkpt>
      <trkpt lat="58.685984993353486" lon="16.792470943182707">
        <ele>64.25</ele>
        <time>2025-01-31T19:59:32.927Z</time>
      </trkpt>
      <trkpt lat="58.686047941446304" lon="16.792745953425765">
        <ele>64.16</ele>
        <time>2025-01-31T19:59:43.172Z</time>
      </trkpt>
      <trkpt lat="58.686177944764495" lon="16.79307896643877">
        <ele>64.09</ele>
        <time>2025-01-31T19:59:53.446Z</time>
      </trkpt>
      <trkpt lat="58.68633200414479" lon="16.793372333049774">
        <ele>63.95</ele>
        <time>2025-01-31T20:00:03.749Z</time>
      </trkpt>
      <trkpt lat="58.68648597970605" lon="16.793665699660778">
        <ele>63.77</ele>
        <time>2025-01-31T20:00:14.081Z</time>
      </trkpt>
      <trkpt lat="58.68663894943893" lon="16.79395697079599">
        <ele>63.53</ele>
        <time>2025-01-31T20:00:24.442Z</time>
      </trkpt>
      <trkpt lat="58.686734922230244" lon="16.793991923332214">
        <ele>63.36</ele>
        <time>2025-01-31T20:00:34.816Z</time>
      </trkpt>
      <trkpt lat="58.68680792860687" lon="16.794114969670773">
        <ele>63.1</ele>
        <time>2025-01-31T20:00:45.203Z</time>
      </trkpt>
      <trkpt lat="58.68700892664492" lon="16.79434698075056">
        <ele>62.85</ele>
        <time>2025-01-31T20:00:55.621Z</time>
      </trkpt>
      <trkpt lat="58.687059972435236" lon="16.794397942721844">
        <ele>62.66</ele>
        <time>2025-01-31T20:01:06.047Z</time>
      </trkpt>
      <trkpt lat="58.68713892996311" lon="16.79456097073853">
        <ele>62.45</ele>
        <time>2025-01-31T20:01:16.489Z</time>
      </trkpt>
      <trkpt lat="58.687186958268285" lon="16.794596929103136">
        <ele>62.28</ele>
        <time>2025-01-31T20:01:26.937Z</time>
      </trkpt>
      <trkpt lat="58.68734596297145" lon="16.794808991253376">
        <ele>62.1</ele>
        <time>2025-01-31T20:01:37.411Z</time>
      </trkpt>
      <trkpt lat="58.687339928001165" lon="16.795028932392597">
        <ele>61.92</ele>
        <time>2025-01-31T20:01:47.901Z</time>
      </trkpt>
      <trkpt lat="58.68739197961986" lon="16.795238982886076">
        <ele>61.8</ele>
        <time>2025-01-31T20:01:58.407Z</time>
      </trkpt>
      <trkpt lat="58.6874089948833" lon="16.79543796926737">
        <ele>61.71</ele>
        <time>2025-01-31T20:02:08.927Z</time>
      </trkpt>
      <trkpt lat="58.687485940754414" lon="16.795836947858334">
        <ele>61.7</ele>
        <time>2025-01-31T20:02:19.476Z</time>
      </trkpt>
      <trkpt lat="58.687554923817515" lon="16.796032916754484">
        <ele>61.78</ele>
        <time>2025-01-31T20:02:30.042Z</time>
      </trkpt>
      <trkpt lat="58.68758996017277" lon="16.796370958909392">
        <ele>61.9</ele>
        <time>2025-01-31T20:02:40.632Z</time>
      </trkpt>
      <trkpt lat="58.687635976821184" lon="16.796717969700694">
        <ele>62.02</ele>
        <time>2025-01-31T20:02:51.247Z</time>
      </trkpt>
      <trkpt lat="58.687638994306326" lon="16.79684093222022">
        <ele>62.19</ele>
        <time>2025-01-31T20:03:01.870Z</time>
      </trkpt>
      <trkpt lat="58.68764117360115" lon="16.796857360750437">
        <ele>62.41</ele>
        <time>2025-01-31T20:03:12.495Z</time>
      </trkpt>
      <trkpt lat="58.68768107146025" lon="16.797148967161775">
        <ele>62.69</ele>
        <time>2025-01-31T20:03:23.141Z</time>
      </trkpt>
      <trkpt lat="58.687722980976105" lon="16.797454990446568">
        <ele>62.99</ele>
        <time>2025-01-31T20:03:33.809Z</time>
      </trkpt>
      <trkpt lat="58.687830939888954" lon="16.79793493822217">
        <ele>63.33</ele>
        <time>2025-01-31T20:03:44.513Z</time>
      </trkpt>
      <trkpt lat="58.68794593960047" lon="16.798350932076573">
        <ele>63.64</ele>
        <time>2025-01-31T20:03:55.250Z</time>
      </trkpt>
      <trkpt lat="58.68810695596039" lon="16.798564922064543">
        <ele>64.05</ele>
        <time>2025-01-31T20:04:06.013Z</time>
      </trkpt>
      <trkpt lat="58.68811793625355" lon="16.798608927056193">
        <ele>64.29</ele>
        <time>2025-01-31T20:04:16.779Z</time>
      </trkpt>
      <trkpt lat="58.68814199231565" lon="16.79870992898941">
        <ele>64.51</ele>
        <time>2025-01-31T20:04:27.553Z</time>
      </trkpt>
      <trkpt lat="58.68813796900213" lon="16.799001954495907">
        <ele>64.64</ele>
        <time>2025-01-31T20:04:38.347Z</time>
      </trkpt>
      <trkpt lat="58.68809698149562" lon="16.799401938915253">
        <ele>64.72</ele>
        <time>2025-01-31T20:04:49.170Z</time>
      </trkpt>
      <trkpt lat="58.68810293264687" lon="16.799747943878174">
        <ele>64.67</ele>
        <time>2025-01-31T20:05:00.017Z</time>
      </trkpt>
      <trkpt lat="58.68815414607525" lon="16.80020811036229">
        <ele>64.6</ele>
        <time>2025-01-31T20:05:10.897Z</time>
      </trkpt>
      <trkpt lat="58.688205275684595" lon="16.800668193027377">
        <ele>64.4</ele>
        <time>2025-01-31T20:05:21.809Z</time>
      </trkpt>
      <trkpt lat="58.68825598619878" lon="16.801123917102814">
        <ele>64.16</ele>
        <time>2025-01-31T20:05:32.754Z</time>
      </trkpt>
      <trkpt lat="58.68837894871831" lon="16.80147796869278">
        <ele>63.96</ele>
        <time>2025-01-31T20:05:43.728Z</time>
      </trkpt>
      <trkpt lat="58.6884431540966" lon="16.80176831781864">
        <ele>63.7</ele>
        <time>2025-01-31T20:05:54.724Z</time>
      </trkpt>
      <trkpt lat="58.68850694037974" lon="16.80205699056387">
        <ele>63.42</ele>
        <time>2025-01-31T20:06:05.742Z</time>
      </trkpt>
      <trkpt lat="58.68870140053332" lon="16.802425291389227">
        <ele>63.17</ele>
        <time>2025-01-31T20:06:16.797Z</time>
      </trkpt>
      <trkpt lat="58.68889493867755" lon="16.80279199965298">
        <ele>62.85</ele>
        <time>2025-01-31T20:06:27.888Z</time>
      </trkpt>
      <trkpt lat="58.689019326120615" lon="16.803122833371162">
        <ele>62.53</ele>
        <time>2025-01-31T20:06:39.007Z</time>
      </trkpt>
      <trkpt lat="58.689142959192395" lon="16.80345199070871">
        <ele>62.27</ele>
        <time>2025-01-31T20:06:50.155Z</time>
      </trkpt>
      <trkpt lat="58.68932736106217" lon="16.803780226036906">
        <ele>61.99</ele>
        <time>2025-01-31T20:07:01.336Z</time>
      </trkpt>
      <trkpt lat="58.689510924741626" lon="16.804106952622533">
        <ele>61.7</ele>
        <time>2025-01-31T20:07:12.551Z</time>
      </trkpt>
      <trkpt lat="58.68953296914697" lon="16.804395960643888">
        <ele>61.47</ele>
        <time>2025-01-31T20:07:23.786Z</time>
      </trkpt>
      <trkpt lat="58.689734134823084" lon="16.804797621443868">
        <ele>61.31</ele>
        <time>2025-01-31T20:07:35.060Z</time>
      </trkpt>
      <trkpt lat="58.6899353004992" lon="16.805199198424816">
        <ele>61.3</ele>
        <time>2025-01-31T20:07:46.373Z</time>
      </trkpt>
      <trkpt lat="58.69013495743275" lon="16.805597925558686">
        <ele>61.3</ele>
        <time>2025-01-31T20:07:57.724Z</time>
      </trkpt>
      <trkpt lat="58.69031894020736" lon="16.805790960788727">
        <ele>61.43</ele>
        <time>2025-01-31T20:08:09.103Z</time>
      </trkpt>
      <trkpt lat="58.690506275743246" lon="16.80595776066184">
        <ele>61.56</ele>
        <time>2025-01-31T20:08:20.510Z</time>
      </trkpt>
      <trkpt lat="58.690692940726876" lon="16.806123973801732">
        <ele>61.73</ele>
        <time>2025-01-31T20:08:31.944Z</time>
      </trkpt>
      <trkpt lat="58.69087692350149" lon="16.80627392604947">
        <ele>61.9</ele>
        <time>2025-01-31T20:08:43.405Z</time>
      </trkpt>
      <trkpt lat="58.69103793986142" lon="16.806434942409396">
        <ele>62.1</ele>
        <time>2025-01-31T20:08:54.890Z</time>
      </trkpt>
      <trkpt lat="58.69117196649313" lon="16.806670976802707">
        <ele>62.33</ele>
        <time>2025-01-31T20:09:06.400Z</time>
      </trkpt>
      <trkpt lat="58.6913029756397" lon="16.807072972878814">
        <ele>62.5</ele>
        <time>2025-01-31T20:09:17.943Z</time>
      </trkpt>
      <trkpt lat="58.691390985623" lon="16.807207921519876">
        <ele>62.72</ele>
        <time>2025-01-31T20:09:29.501Z</time>
      </trkpt>
      <trkpt lat="58.691417975351214" lon="16.80751394480467">
        <ele>62.9</ele>
        <time>2025-01-31T20:09:41.080Z</time>
      </trkpt>
      <trkpt lat="58.6914879642427" lon="16.80779499001801">
        <ele>63.07</ele>
        <time>2025-01-31T20:09:52.681Z</time>
      </trkpt>
      <trkpt lat="58.69164596311748" lon="16.807957934215665">
        <ele>63.21</ele>
        <time>2025-01-31T20:10:04.306Z</time>
      </trkpt>
      <trkpt lat="58.691792730242014" lon="16.808154825121164">
        <ele>63.33</ele>
        <time>2025-01-31T20:10:15.955Z</time>
      </trkpt>
      <trkpt lat="58.69193899445236" lon="16.80835096165538">
        <ele>63.43</ele>
        <time>2025-01-31T20:10:27.628Z</time>
      </trkpt>
      <trkpt lat="58.692064974457026" lon="16.80867198854685">
        <ele>63.48</ele>
        <time>2025-01-31T20:10:39.329Z</time>
      </trkpt>
      <trkpt lat="58.69213714264333" lon="16.808954291045666">
        <ele>63.59</ele>
        <time>2025-01-31T20:10:51.051Z</time>
      </trkpt>
      <trkpt lat="58.69220897555351" lon="16.80923491716385">
        <ele>63.69</ele>
        <time>2025-01-31T20:11:02.795Z</time>
      </trkpt>
      <trkpt lat="58.69236194528639" lon="16.809546975418925">
        <ele>63.96</ele>
        <time>2025-01-31T20:11:14.569Z</time>
      </trkpt>
      <trkpt lat="58.692471999675035" lon="16.80979399010539">
        <ele>64.21</ele>
        <time>2025-01-31T20:11:26.366Z</time>
      </trkpt>
      <trkpt lat="58.6923289205879" lon="16.810148963704705">
        <ele>64.46</ele>
        <time>2025-01-31T20:11:38.194Z</time>
      </trkpt>
      <trkpt lat="58.6921959836036" lon="16.8105049431324">
        <ele>64.69</ele>
        <time>2025-01-31T20:11:50.052Z</time>
      </trkpt>
      <trkpt lat="58.69211493059993" lon="16.810832927003503">
        <ele>64.95</ele>
        <time>2025-01-31T20:12:01.936Z</time>
      </trkpt>
      <trkpt lat="58.692039996385574" lon="16.811329973861575">
        <ele>65.16</ele>
        <time>2025-01-31T20:12:13.856Z</time>
      </trkpt>
      <trkpt lat="58.69199498556554" lon="16.81178896687925">
        <ele>65.37</ele>
        <time>2025-01-31T20:12:25.808Z</time>
      </trkpt>
      <trkpt lat="58.69194293394685" lon="16.812052996829152">
        <ele>65.64</ele>
        <time>2025-01-31T20:12:37.780Z</time>
      </trkpt>
      <trkpt lat="58.6921180319041" lon="16.812296826392412">
        <ele>66.03</ele>
        <time>2025-01-31T20:12:49.781Z</time>
      </trkpt>
      <trkpt lat="58.69229304604232" lon="16.812540655955672">
        <ele>66.51</ele>
        <time>2025-01-31T20:13:01.811Z</time>
      </trkpt>
      <trkpt lat="58.69246697053313" lon="16.81278297677636">
        <ele>66.82</ele>
        <time>2025-01-31T20:13:13.869Z</time>
      </trkpt>
      <trkpt lat="58.6926222871989" lon="16.813029488548636">
        <ele>67.09</ele>
        <time>2025-01-31T20:13:25.954Z</time>
      </trkpt>
      <trkpt lat="58.692776933312416" lon="16.81327499449253">
        <ele>67.28</ele>
        <time>2025-01-31T20:13:38.066Z</time>
      </trkpt>
      <trkpt lat="58.69291791692376" lon="16.813692916184664">
        <ele>67.4</ele>
        <time>2025-01-31T20:13:50.213Z</time>
      </trkpt>
      <trkpt lat="58.69293803349137" lon="16.81400497443974">
        <ele>67.44</ele>
        <time>2025-01-31T20:14:02.382Z</time>
      </trkpt>
      <trkpt lat="58.69295798242092" lon="16.814314937219024">
        <ele>67.4</ele>
        <time>2025-01-31T20:14:14.572Z</time>
      </trkpt>
      <trkpt lat="58.693007938563824" lon="16.814781976863742">
        <ele>67.34</ele>
        <time>2025-01-31T20:14:26.796Z</time>
      </trkpt>
      <trkpt lat="58.69319795630872" lon="16.81524566374719">
        <ele>67.3</ele>
        <time>2025-01-31T20:14:39.061Z</time>
      </trkpt>
      <trkpt lat="58.69338696822524" lon="16.81570691987872">
        <ele>67.21</ele>
        <time>2025-01-31T20:14:51.366Z</time>
      </trkpt>
      <trkpt lat="58.69359198957682" lon="16.8158339895308">
        <ele>67.19</ele>
        <time>2025-01-31T20:15:03.700Z</time>
      </trkpt>
      <trkpt lat="58.693761974573135" lon="16.815993916243315">
        <ele>67.06</ele>
        <time>2025-01-31T20:15:16.060Z</time>
      </trkpt>
      <trkpt lat="58.693891977891326" lon="16.816514935344458">
        <ele>66.75</ele>
        <time>2025-01-31T20:15:28.460Z</time>
      </trkpt>
      <trkpt lat="58.694040924310684" lon="16.81703696027398">
        <ele>66.31</ele>
        <time>2025-01-31T20:15:40.901Z</time>
      </trkpt>
      <trkpt lat="58.69418098591268" lon="16.817488996312022">
        <ele>65.94</ele>
        <time>2025-01-31T20:15:53.379Z</time>
      </trkpt>
      <trkpt lat="58.69423094205558" lon="16.817921921610832">
        <ele>65.51</ele>
        <time>2025-01-31T20:16:05.888Z</time>
      </trkpt>
      <trkpt lat="58.69433596730232" lon="16.818372951820493">
        <ele>64.98</ele>
        <time>2025-01-31T20:16:18.431Z</time>
      </trkpt>
      <trkpt lat="58.69435893371701" lon="16.818804955109954">
        <ele>64.39</ele>
        <time>2025-01-31T20:16:31.004Z</time>
      </trkpt>
      <trkpt lat="58.69443696923554" lon="16.819220948964357">
        <ele>63.81</ele>
        <time>2025-01-31T20:16:43.608Z</time>
      </trkpt>
      <trkpt lat="58.69455674663186" lon="16.819431921467185">
        <ele>63.3</ele>
        <time>2025-01-31T20:16:56.234Z</time>
      </trkpt>
      <trkpt lat="58.69467593729496" lon="16.819641971960664">
        <ele>62.82</ele>
        <time>2025-01-31T20:17:08.881Z</time>
      </trkpt>
      <trkpt lat="58.694725977256894" lon="16.82010892778635">
        <ele>62.25</ele>
        <time>2025-01-31T20:17:21.562Z</time>
      </trkpt>
      <trkpt lat="58.694856986403465" lon="16.82057898491621">
        <ele>61.74</ele>
        <time>2025-01-31T20:17:34.280Z</time>
      </trkpt>
      <trkpt lat="58.69504289701581" lon="16.820921218022704">
        <ele>61.3</ele>
        <time>2025-01-31T20:17:47.032Z</time>
      </trkpt>
      <trkpt lat="58.69522796943784" lon="16.821261942386627">
        <ele>60.91</ele>
        <time>2025-01-31T20:17:59.818Z</time>
      </trkpt>
      <trkpt lat="58.695356296375394" lon="16.821551201865077">
        <ele>60.63</ele>
        <time>2025-01-31T20:18:12.631Z</time>
      </trkpt>
      <trkpt lat="58.695483952760696" lon="16.821838952600956">
        <ele>60.44</ele>
        <time>2025-01-31T20:18:25.470Z</time>
      </trkpt>
      <trkpt lat="58.69564832188189" lon="16.82210306636989">
        <ele>60.36</ele>
        <time>2025-01-31T20:18:38.338Z</time>
      </trkpt>
      <trkpt lat="58.6958119366318" lon="16.82236592285335">
        <ele>60.41</ele>
        <time>2025-01-31T20:18:51.234Z</time>
      </trkpt>
      <trkpt lat="58.695940766483545" lon="16.82259449735284">
        <ele>60.44</ele>
        <time>2025-01-31T20:19:04.154Z</time>
      </trkpt>
      <trkpt lat="58.69606892578304" lon="16.822821982204914">
        <ele>60.48</ele>
        <time>2025-01-31T20:19:17.097Z</time>
      </trkpt>
      <trkpt lat="58.69615215808153" lon="16.823092214763165">
        <ele>60.68</ele>
        <time>2025-01-31T20:19:30.062Z</time>
      </trkpt>
      <trkpt lat="58.696234971284866" lon="16.823360938578844">
        <ele>61.02</ele>
        <time>2025-01-31T20:19:43.049Z</time>
      </trkpt>
      <trkpt lat="58.69628895074129" lon="16.823577946051955">
        <ele>61.4</ele>
        <time>2025-01-31T20:19:56.052Z</time>
      </trkpt>
      <trkpt lat="58.69628895074129" lon="16.823575934395194">
        <ele>61.79</ele>
        <time>2025-01-31T20:20:09.055Z</time>
      </trkpt>
      <trkpt lat="58.69636598043144" lon="16.823882963508368">
        <ele>62.29</ele>
        <time>2025-01-31T20:20:22.082Z</time>
      </trkpt>
      <trkpt lat="58.696539318189025" lon="16.82414699345827">
        <ele>62.86</ele>
        <time>2025-01-31T20:20:35.139Z</time>
      </trkpt>
      <trkpt lat="58.69671198539436" lon="16.824409933760762">
        <ele>63.41</ele>
        <time>2025-01-31T20:20:48.225Z</time>
      </trkpt>
      <trkpt lat="58.69699797593057" lon="16.824521999806166">
        <ele>64.04</ele>
        <time>2025-01-31T20:21:01.350Z</time>
      </trkpt>
      <trkpt lat="58.69714926928282" lon="16.824733894318342">
        <ele>64.59</ele>
        <time>2025-01-31T20:21:14.500Z</time>
      </trkpt>
      <trkpt lat="58.69729997590184" lon="16.8249449506402">
        <ele>65.12</ele>
        <time>2025-01-31T20:21:27.675Z</time>
      </trkpt>
      <trkpt lat="58.697541961446404" lon="16.82500395923853">
        <ele>65.68</ele>
        <time>2025-01-31T20:21:40.883Z</time>
      </trkpt>
      <trkpt lat="58.69774798862636" lon="16.82511292397976">
        <ele>66.07</ele>
        <time>2025-01-31T20:21:54.119Z</time>
      </trkpt>
      <trkpt lat="58.69785821065307" lon="16.825392711907625">
        <ele>66.36</ele>
        <time>2025-01-31T20:22:07.380Z</time>
      </trkpt>
      <trkpt lat="58.69796792976558" lon="16.82567099109292">
        <ele>66.56</ele>
        <time>2025-01-31T20:22:20.665Z</time>
      </trkpt>
      <trkpt lat="58.69817739352584" lon="16.825919430702925">
        <ele>66.77</ele>
        <time>2025-01-31T20:22:33.983Z</time>
      </trkpt>
      <trkpt lat="58.69838593527675" lon="16.82616694830358">
        <ele>67.0</ele>
        <time>2025-01-31T20:22:47.334Z</time>
      </trkpt>
      <trkpt lat="58.69855080731213" lon="16.826370377093554">
        <ele>67.33</ele>
        <time>2025-01-31T20:23:00.711Z</time>
      </trkpt>
      <trkpt lat="58.69871492497623" lon="16.82657296769321">
        <ele>67.69</ele>
        <time>2025-01-31T20:23:14.114Z</time>
      </trkpt>
      <trkpt lat="58.69897392578423" lon="16.82670095935464">
        <ele>68.17</ele>
        <time>2025-01-31T20:23:27.553Z</time>
      </trkpt>
      <trkpt lat="58.69908372871578" lon="16.82647087611258">
        <ele>68.48</ele>
        <time>2025-01-31T20:23:41.013Z</time>
      </trkpt>
      <trkpt lat="58.6991929449141" lon="16.826241966336966">
        <ele>68.81</ele>
        <time>2025-01-31T20:23:54.495Z</time>
      </trkpt>
      <trkpt lat="58.69943794794381" lon="16.825920939445496">
        <ele>69.07</ele>
        <time>2025-01-31T20:24:08.017Z</time>
      </trkpt>
      <trkpt lat="58.69963794015348" lon="16.825633943080902">
        <ele>69.21</ele>
        <time>2025-01-31T20:24:21.572Z</time>
      </trkpt>
      <trkpt lat="58.699800968170166" lon="16.825431939214468">
        <ele>69.27</ele>
        <time>2025-01-31T20:24:35.153Z</time>
      </trkpt>
      <trkpt lat="58.69998293928802" lon="16.825126921758056">
        <ele>69.27</ele>
        <time>2025-01-31T20:24:48.766Z</time>
      </trkpt>
      <trkpt lat="58.70015594176948" lon="16.82492491789162">
        <ele>69.23</ele>
        <time>2025-01-31T20:25:02.406Z</time>
      </trkpt>
      <trkpt lat="58.700302708894014" lon="16.825084760785103">
        <ele>69.09</ele>
        <time>2025-01-31T20:25:16.069Z</time>
      </trkpt>
      <trkpt lat="58.70044897310436" lon="16.82524393312633">
        <ele>68.95</ele>
        <time>2025-01-31T20:25:29.754Z</time>
      </trkpt>
      <trkpt lat="58.700622813776135" lon="16.82545641437173">
        <ele>68.81</ele>
        <time>2025-01-31T20:25:43.467Z</time>
      </trkpt>
      <trkpt lat="58.70079598389566" lon="16.82566797360778">
        <ele>68.73</ele>
        <time>2025-01-31T20:25:57.207Z</time>
      </trkpt>
      <trkpt lat="58.70096932165325" lon="16.82590643875301">
        <ele>68.58</ele>
        <time>2025-01-31T20:26:10.976Z</time>
      </trkpt>
      <trkpt lat="58.70114198885858" lon="16.82614398188889">
        <ele>68.5</ele>
        <time>2025-01-31T20:26:24.773Z</time>
      </trkpt>
      <trkpt lat="58.70125724002719" lon="16.82638051919639">
        <ele>68.37</ele>
        <time>2025-01-31T20:26:38.593Z</time>
      </trkpt>
      <trkpt lat="58.70137198828161" lon="16.82661596685648">
        <ele>68.23</ele>
        <time>2025-01-31T20:26:52.435Z</time>
      </trkpt>
      <trkpt lat="58.70145664550364" lon="16.827186439186335">
        <ele>68.06</ele>
        <time>2025-01-31T20:27:06.318Z</time>
      </trkpt>
      <trkpt lat="58.7014570645988" lon="16.82718920521438">
        <ele>68.02</ele>
        <time>2025-01-31T20:27:20.202Z</time>
      </trkpt>
      <trkpt lat="58.701456896960735" lon="16.827187780290842">
        <ele>68.01</ele>
        <time>2025-01-31T20:27:34.086Z</time>
      </trkpt>
      <trkpt lat="58.701560497283936" lon="16.827707290649414">
        <ele>68.02</ele>
        <time>2025-01-31T20:27:48.008Z</time>
      </trkpt>
      <trkpt lat="58.701700223609805" lon="16.827954556792974">
        <ele>68.09</ele>
        <time>2025-01-31T20:28:01.956Z</time>
      </trkpt>
      <trkpt lat="58.701839447021484" lon="16.828200817108154">
        <ele>68.24</ele>
        <time>2025-01-31T20:28:15.929Z</time>
      </trkpt>
      <trkpt lat="58.70194673538208" lon="16.828372478485107">
        <ele>68.42</ele>
        <time>2025-01-31T20:28:29.921Z</time>
      </trkpt>
      <trkpt lat="58.702075481414795" lon="16.82880163192749">
        <ele>68.62</ele>
        <time>2025-01-31T20:28:43.947Z</time>
      </trkpt>
      <trkpt lat="58.702333476394415" lon="16.829138416796923">
        <ele>68.85</ele>
        <time>2025-01-31T20:28:58.015Z</time>
      </trkpt>
      <trkpt lat="58.702591471374035" lon="16.829475285485387">
        <ele>69.06</ele>
        <time>2025-01-31T20:29:12.125Z</time>
      </trkpt>
      <trkpt lat="58.702847957611084" lon="16.82981014251709">
        <ele>69.37</ele>
        <time>2025-01-31T20:29:26.276Z</time>
      </trkpt>
      <trkpt lat="58.703062534332275" lon="16.829853057861328">
        <ele>69.73</ele>
        <time>2025-01-31T20:29:40.456Z</time>
      </trkpt>
      <trkpt lat="58.703266717493534" lon="16.829992700368166">
        <ele>70.04</ele>
        <time>2025-01-31T20:29:54.665Z</time>
      </trkpt>
      <trkpt lat="58.70347031392157" lon="16.830132007598877">
        <ele>70.29</ele>
        <time>2025-01-31T20:30:08.903Z</time>
      </trkpt>
      <trkpt lat="58.70347023010254" lon="16.830132007598877">
        <ele>70.43</ele>
        <time>2025-01-31T20:30:23.141Z</time>
      </trkpt>
      <trkpt lat="58.703738786280155" lon="16.830121194943786">
        <ele>70.58</ele>
        <time>2025-01-31T20:30:37.415Z</time>
      </trkpt>
      <trkpt lat="58.70400667190552" lon="16.830110549926758">
        <ele>70.57</ele>
        <time>2025-01-31T20:30:51.724Z</time>
      </trkpt>
      <trkpt lat="58.70415712706745" lon="16.830218005925417">
        <ele>70.44</ele>
        <time>2025-01-31T20:31:06.055Z</time>
      </trkpt>
      <trkpt lat="58.704307079315186" lon="16.83032512664795">
        <ele>70.22</ele>
        <time>2025-01-31T20:31:20.407Z</time>
      </trkpt>
      <trkpt lat="58.704582089558244" lon="16.83029931038618">
        <ele>69.91</ele>
        <time>2025-01-31T20:31:34.796Z</time>
      </trkpt>
      <trkpt lat="58.704857183620334" lon="16.830273494124413">
        <ele>69.48</ele>
        <time>2025-01-31T20:31:49.222Z</time>
      </trkpt>
      <trkpt lat="58.70513219386339" lon="16.830247761681676">
        <ele>68.89</ele>
        <time>2025-01-31T20:32:03.685Z</time>
      </trkpt>
      <trkpt lat="58.70540728792548" lon="16.830221945419908">
        <ele>68.2</ele>
        <time>2025-01-31T20:32:18.185Z</time>
      </trkpt>
      <trkpt lat="58.70568037033081" lon="16.830196380615234">
        <ele>67.36</ele>
        <time>2025-01-31T20:32:32.721Z</time>
      </trkpt>
      <trkpt lat="58.70585228316486" lon="16.830379106104374">
        <ele>66.41</ele>
        <time>2025-01-31T20:32:47.283Z</time>
      </trkpt>
      <trkpt lat="58.70602369308472" lon="16.83056116104126">
        <ele>65.3</ele>
        <time>2025-01-31T20:33:01.872Z</time>
      </trkpt>
      <trkpt lat="58.70613098144531" lon="16.83077573776245">
        <ele>64.18</ele>
        <time>2025-01-31T20:33:16.481Z</time>
      </trkpt>
      <trkpt lat="58.70615243911743" lon="16.831204891204834">
        <ele>63.11</ele>
        <time>2025-01-31T20:33:31.120Z</time>
      </trkpt>
      <trkpt lat="58.706324100494385" lon="16.831698417663574">
        <ele>62.05</ele>
        <time>2025-01-31T20:33:45.801Z</time>
      </trkpt>
      <trkpt lat="58.70651721954346" lon="16.831998825073242">
        <ele>60.9</ele>
        <time>2025-01-31T20:34:00.515Z</time>
      </trkpt>
      <trkpt lat="58.70681092143059" lon="16.832199404016137">
        <ele>59.6</ele>
        <time>2025-01-31T20:34:15.270Z</time>
      </trkpt>
      <trkpt lat="58.70710470713675" lon="16.832399982959032">
        <ele>58.3</ele>
        <time>2025-01-31T20:34:30.067Z</time>
      </trkpt>
      <trkpt lat="58.70739698410034" lon="16.832599639892578">
        <ele>57.05</ele>
        <time>2025-01-31T20:34:44.906Z</time>
      </trkpt>
      <trkpt lat="58.707590103149414" lon="16.83253526687622">
        <ele>55.54</ele>
        <time>2025-01-31T20:34:59.771Z</time>
      </trkpt>
      <trkpt lat="58.70769739151001" lon="16.83257818222046">
        <ele>54.08</ele>
        <time>2025-01-31T20:35:14.650Z</time>
      </trkpt>
      <trkpt lat="58.70789051055908" lon="16.832470893859863">
        <ele>52.4</ele>
        <time>2025-01-31T20:35:29.556Z</time>
      </trkpt>
      <trkpt lat="58.708083629608154" lon="16.83257818222046">
        <ele>50.89</ele>
        <time>2025-01-31T20:35:44.489Z</time>
      </trkpt>
      <trkpt lat="58.708355790004134" lon="16.832585306838155">
        <ele>49.17</ele>
        <time>2025-01-31T20:35:59.458Z</time>
      </trkpt>
      <trkpt lat="58.708627950400114" lon="16.83259243145585">
        <ele>47.48</ele>
        <time>2025-01-31T20:36:14.464Z</time>
      </trkpt>
      <trkpt lat="58.70889902114868" lon="16.832599639892578">
        <ele>45.82</ele>
        <time>2025-01-31T20:36:29.506Z</time>
      </trkpt>
      <trkpt lat="58.70912466198206" lon="16.832438372075558">
        <ele>44.16</ele>
        <time>2025-01-31T20:36:44.580Z</time>
      </trkpt>
      <trkpt lat="58.709349632263184" lon="16.83227777481079">
        <ele>42.76</ele>
        <time>2025-01-31T20:36:59.686Z</time>
      </trkpt>
      <trkpt lat="58.7095645442605" lon="16.83204123750329">
        <ele>41.56</ele>
        <time>2025-01-31T20:37:14.825Z</time>
      </trkpt>
      <trkpt lat="58.70977954007685" lon="16.83180478401482">
        <ele>40.63</ele>
        <time>2025-01-31T20:37:29.998Z</time>
      </trkpt>
      <trkpt lat="58.70999336242676" lon="16.83156967163086">
        <ele>39.77</ele>
        <time>2025-01-31T20:37:45.204Z</time>
      </trkpt>
      <trkpt lat="58.710165275260806" lon="16.83154813013971">
        <ele>39.04</ele>
        <time>2025-01-31T20:38:00.433Z</time>
      </trkpt>
      <trkpt lat="58.710336685180664" lon="16.83152675628662">
        <ele>38.45</ele>
        <time>2025-01-31T20:38:15.684Z</time>
      </trkpt>
      <trkpt lat="58.710572719573975" lon="16.831655502319336">
        <ele>38.09</ele>
        <time>2025-01-31T20:38:30.968Z</time>
      </trkpt>
      <trkpt lat="58.71075913310051" lon="16.83210720308125">
        <ele>37.85</ele>
        <time>2025-01-31T20:38:46.292Z</time>
      </trkpt>
      <trkpt lat="58.710945630446076" lon="16.832558987662196">
        <ele>37.68</ele>
        <time>2025-01-31T20:39:01.657Z</time>
      </trkpt>
      <trkpt lat="58.711130702868104" lon="16.833007335662842">
        <ele>37.76</ele>
        <time>2025-01-31T20:39:17.061Z</time>
      </trkpt>
      <trkpt lat="58.71113061904907" lon="16.833007335662842">
        <ele>37.97</ele>
        <time>2025-01-31T20:39:32.465Z</time>
      </trkpt>
      <trkpt lat="58.71117353439331" lon="16.83309316635132">
        <ele>38.32</ele>
        <time>2025-01-31T20:39:47.878Z</time>
      </trkpt>
      <trkpt lat="58.71133480221033" lon="16.833474962040782">
        <ele>38.75</ele>
        <time>2025-01-31T20:40:03.325Z</time>
      </trkpt>
      <trkpt lat="58.71149615384638" lon="16.833856841549277">
        <ele>39.3</ele>
        <time>2025-01-31T20:40:18.806Z</time>
      </trkpt>
      <trkpt lat="58.711657505482435" lon="16.83423863723874">
        <ele>39.97</ele>
        <time>2025-01-31T20:40:34.321Z</time>
      </trkpt>
      <trkpt lat="58.711817264556885" lon="16.834616661071777">
        <ele>40.88</ele>
        <time>2025-01-31T20:40:49.870Z</time>
      </trkpt>
      <trkpt lat="58.712032260373235" lon="16.834874656051397">
        <ele>41.91</ele>
        <time>2025-01-31T20:41:05.453Z</time>
      </trkpt>
      <trkpt lat="58.712247256189585" lon="16.835132651031017">
        <ele>43.06</ele>
        <time>2025-01-31T20:41:21.070Z</time>
      </trkpt>
      <trkpt lat="58.71246099472046" lon="16.835389137268066">
        <ele>44.12</ele>
        <time>2025-01-31T20:41:36.721Z</time>
      </trkpt>
      <trkpt lat="58.712525367736816" lon="16.83558225631714">
        <ele>44.99</ele>
        <time>2025-01-31T20:41:52.387Z</time>
      </trkpt>
      <trkpt lat="58.71265411376953" lon="16.835711002349854">
        <ele>45.89</ele>
        <time>2025-01-31T20:42:08.073Z</time>
      </trkpt>
      <trkpt lat="58.7126971129328" lon="16.83601233176887">
        <ele>46.66</ele>
        <time>2025-01-31T20:42:23.781Z</time>
      </trkpt>
      <trkpt lat="58.71273994445801" lon="16.83631181716919">
        <ele>47.35</ele>
        <time>2025-01-31T20:42:39.510Z</time>
      </trkpt>
      <trkpt lat="58.71293356642127" lon="16.83668816462159">
        <ele>48.18</ele>
        <time>2025-01-31T20:42:55.276Z</time>
      </trkpt>
      <trkpt lat="58.713126266375184" lon="16.83706283569336">
        <ele>48.97</ele>
        <time>2025-01-31T20:43:11.079Z</time>
      </trkpt>
      <trkpt lat="58.71314764022827" lon="16.83725595474243">
        <ele>49.63</ele>
        <time>2025-01-31T20:43:26.895Z</time>
      </trkpt>
      <trkpt lat="58.713391134515405" lon="16.837370535358787">
        <ele>50.49</ele>
        <time>2025-01-31T20:43:42.745Z</time>
      </trkpt>
      <trkpt lat="58.71363471262157" lon="16.83748511597514">
        <ele>51.31</ele>
        <time>2025-01-31T20:43:58.628Z</time>
      </trkpt>
      <trkpt lat="58.71387720108032" lon="16.837599277496338">
        <ele>52.12</ele>
        <time>2025-01-31T20:44:14.545Z</time>
      </trkpt>
      <trkpt lat="58.71414584107697" lon="16.837835730984807">
        <ele>52.72</ele>
        <time>2025-01-31T20:44:30.501Z</time>
      </trkpt>
      <trkpt lat="58.7144136428833" lon="16.83807134628296">
        <ele>53.34</ele>
        <time>2025-01-31T20:44:46.497Z</time>
      </trkpt>
      <trkpt lat="58.71461782604456" lon="16.838189531117678">
        <ele>54.04</ele>
        <time>2025-01-31T20:45:02.521Z</time>
      </trkpt>
      <trkpt lat="58.714821422472596" lon="16.83830738067627">
        <ele>54.79</ele>
        <time>2025-01-31T20:45:18.574Z</time>
      </trkpt>
      <trkpt lat="58.71492871083319" lon="16.838243007659912">
        <ele>55.53</ele>
        <time>2025-01-31T20:45:34.642Z</time>
      </trkpt>
      <trkpt lat="58.71514320373535" lon="16.838135719299316">
        <ele>56.31</ele>
        <time>2025-01-31T20:45:50.739Z</time>
      </trkpt>
      <trkpt lat="58.715314865112305" lon="16.83779239654541">
        <ele>57.09</ele>
        <time>2025-01-31T20:46:06.869Z</time>
      </trkpt>
      <trkpt lat="58.715400863438845" lon="16.837469525635242">
        <ele>57.66</ele>
        <time>2025-01-31T20:46:23.025Z</time>
      </trkpt>
      <trkpt lat="58.71548652648926" lon="16.837148666381836">
        <ele>58.15</ele>
        <time>2025-01-31T20:46:39.206Z</time>
      </trkpt>
      <trkpt lat="58.71564779430628" lon="16.836890587583184">
        <ele>58.57</ele>
        <time>2025-01-31T20:46:55.415Z</time>
      </trkpt>
      <trkpt lat="58.715808391571045" lon="16.836633682250977">
        <ele>58.82</ele>
        <time>2025-01-31T20:47:11.652Z</time>
      </trkpt>
      <trkpt lat="58.716022968292236" lon="16.836462020874023">
        <ele>58.98</ele>
        <time>2025-01-31T20:47:27.920Z</time>
      </trkpt>
      <trkpt lat="58.716302337124944" lon="16.836440479382873">
        <ele>59.06</ele>
        <time>2025-01-31T20:47:44.225Z</time>
      </trkpt>
      <trkpt lat="58.716580951586366" lon="16.836419105529785">
        <ele>59.11</ele>
        <time>2025-01-31T20:48:00.567Z</time>
      </trkpt>
      <trkpt lat="58.71677432209253" lon="16.836408292874694">
        <ele>59.24</ele>
        <time>2025-01-31T20:48:16.935Z</time>
      </trkpt>
      <trkpt lat="58.71696718968451" lon="16.836397647857666">
        <ele>59.44</ele>
        <time>2025-01-31T20:48:33.329Z</time>
      </trkpt>
      <trkpt lat="58.717149747535586" lon="16.836300920695066">
        <ele>59.68</ele>
        <time>2025-01-31T20:48:49.748Z</time>
      </trkpt>
      <trkpt lat="58.717331886291504" lon="16.836204528808594">
        <ele>59.88</ele>
        <time>2025-01-31T20:49:06.193Z</time>
      </trkpt>
      <trkpt lat="58.7174391746521" lon="16.836140155792236">
        <ele>60.14</ele>
        <time>2025-01-31T20:49:22.653Z</time>
      </trkpt>
      <trkpt lat="58.71747144497931" lon="16.835698764771223">
        <ele>60.35</ele>
        <time>2025-01-31T20:49:39.144Z</time>
      </trkpt>
      <trkpt lat="58.71750354766846" lon="16.83526039123535">
        <ele>60.7</ele>
        <time>2025-01-31T20:49:55.665Z</time>
      </trkpt>
      <trkpt lat="58.71763229370117" lon="16.83480978012085">
        <ele>61.16</ele>
        <time>2025-01-31T20:50:12.222Z</time>
      </trkpt>
      <trkpt lat="58.71765375137329" lon="16.834380626678467">
        <ele>61.66</ele>
        <time>2025-01-31T20:50:28.809Z</time>
      </trkpt>
      <trkpt lat="58.71772902086377" lon="16.83411156758666">
        <ele>62.16</ele>
        <time>2025-01-31T20:50:45.417Z</time>
      </trkpt>
      <trkpt lat="58.717803955078125" lon="16.83384418487549">
        <ele>62.59</ele>
        <time>2025-01-31T20:51:02.046Z</time>
      </trkpt>
      <trkpt lat="58.71786832809448" lon="16.83330774307251">
        <ele>62.92</ele>
        <time>2025-01-31T20:51:18.714Z</time>
      </trkpt>
      <trkpt lat="58.71797586791217" lon="16.832941872999072">
        <ele>63.21</ele>
        <time>2025-01-31T20:51:35.411Z</time>
      </trkpt>
      <trkpt lat="58.718082904815674" lon="16.83257818222046">
        <ele>63.43</ele>
        <time>2025-01-31T20:51:52.137Z</time>
      </trkpt>
      <trkpt lat="58.71825456619263" lon="16.832256317138672">
        <ele>63.53</ele>
        <time>2025-01-31T20:52:08.895Z</time>
      </trkpt>
      <trkpt lat="58.71838364750147" lon="16.831840239465237">
        <ele>63.44</ele>
        <time>2025-01-31T20:52:25.687Z</time>
      </trkpt>
      <trkpt lat="58.71851272881031" lon="16.831424245610833">
        <ele>63.2</ele>
        <time>2025-01-31T20:52:42.512Z</time>
      </trkpt>
      <trkpt lat="58.71864080429077" lon="16.83101177215576">
        <ele>62.79</ele>
        <time>2025-01-31T20:52:59.371Z</time>
      </trkpt>
      <trkpt lat="58.71874809265137" lon="16.830883026123047">
        <ele>62.4</ele>
        <time>2025-01-31T20:53:16.247Z</time>
      </trkpt>
      <trkpt lat="58.71893090195954" lon="16.83045269921422">
        <ele>61.81</ele>
        <time>2025-01-31T20:53:33.161Z</time>
      </trkpt>
      <trkpt lat="58.71911287307739" lon="16.83002471923828">
        <ele>61.4</ele>
        <time>2025-01-31T20:53:50.114Z</time>
      </trkpt>
      <trkpt lat="58.71926307678223" lon="16.82978868484497">
        <ele>60.94</ele>
        <time>2025-01-31T20:54:07.093Z</time>
      </trkpt>
      <trkpt lat="58.71929534710944" lon="16.82942264713347">
        <ele>60.31</ele>
        <time>2025-01-31T20:54:24.098Z</time>
      </trkpt>
      <trkpt lat="58.719327449798584" lon="16.82905912399292">
        <ele>59.63</ele>
        <time>2025-01-31T20:54:41.128Z</time>
      </trkpt>
      <trkpt lat="58.719284534454346" lon="16.82878017425537">
        <ele>58.96</ele>
        <time>2025-01-31T20:54:58.178Z</time>
      </trkpt>
      <trkpt lat="58.71913433074951" lon="16.828501224517822">
        <ele>58.36</ele>
        <time>2025-01-31T20:55:15.256Z</time>
      </trkpt>
      <trkpt lat="58.719069957733154" lon="16.828436851501465">
        <ele>57.88</ele>
        <time>2025-01-31T20:55:32.344Z</time>
      </trkpt>
      <trkpt lat="58.719069957733154" lon="16.82830810546875">
        <ele>57.43</ele>
        <time>2025-01-31T20:55:49.441Z</time>
      </trkpt>
      <trkpt lat="58.71915578842163" lon="16.827964782714844">
        <ele>57.02</ele>
        <time>2025-01-31T20:56:06.564Z</time>
      </trkpt>
      <trkpt lat="58.71936357580125" lon="16.827764119952917">
        <ele>56.63</ele>
        <time>2025-01-31T20:56:23.719Z</time>
      </trkpt>
      <trkpt lat="58.719571363180876" lon="16.82756345719099">
        <ele>56.17</ele>
        <time>2025-01-31T20:56:40.905Z</time>
      </trkpt>
      <trkpt lat="58.719778060913086" lon="16.827363967895508">
        <ele>55.75</ele>
        <time>2025-01-31T20:56:58.122Z</time>
      </trkpt>
      <trkpt lat="58.71999288909137" lon="16.827439153566957">
        <ele>55.53</ele>
        <time>2025-01-31T20:57:15.368Z</time>
      </trkpt>
      <trkpt lat="58.72020721435547" lon="16.827514171600342">
        <ele>55.43</ele>
        <time>2025-01-31T20:57:32.643Z</time>
      </trkpt>
      <trkpt lat="58.720335960388184" lon="16.827471256256104">
        <ele>55.21</ele>
        <time>2025-01-31T20:57:49.935Z</time>
      </trkpt>
      <trkpt lat="58.72042179107666" lon="16.82753562927246">
        <ele>55.03</ele>
        <time>2025-01-31T20:58:07.240Z</time>
      </trkpt>
      <trkpt lat="58.72064743191004" lon="16.82733136229217">
        <ele>54.65</ele>
        <time>2025-01-31T20:58:24.578Z</time>
      </trkpt>
      <trkpt lat="58.72087240219116" lon="16.827127933502197">
        <ele>54.27</ele>
        <time>2025-01-31T20:58:41.949Z</time>
      </trkpt>
      <trkpt lat="58.72095823287964" lon="16.827106475830078">
        <ele>53.84</ele>
        <time>2025-01-31T20:58:59.332Z</time>
      </trkpt>
      <trkpt lat="58.721065521240234" lon="16.826999187469482">
        <ele>53.28</ele>
        <time>2025-01-31T20:59:16.731Z</time>
      </trkpt>
      <trkpt lat="58.72112989425659" lon="16.82654857635498">
        <ele>52.2</ele>
        <time>2025-01-31T20:59:34.162Z</time>
      </trkpt>
      <trkpt lat="58.72131261974573" lon="16.82629049755633">
        <ele>51.43</ele>
        <time>2025-01-31T20:59:51.624Z</time>
      </trkpt>
      <trkpt lat="58.72149467468262" lon="16.82603359222412">
        <ele>50.55</ele>
        <time>2025-01-31T21:00:09.116Z</time>
      </trkpt>
      <trkpt lat="58.72160196304321" lon="16.825990676879883">
        <ele>49.7</ele>
        <time>2025-01-31T21:00:26.623Z</time>
      </trkpt>
      <trkpt lat="58.72166633605957" lon="16.82560443878174">
        <ele>48.52</ele>
        <time>2025-01-31T21:00:44.158Z</time>
      </trkpt>
      <trkpt lat="58.72185979038477" lon="16.825400171801448">
        <ele>47.47</ele>
        <time>2025-01-31T21:01:01.722Z</time>
      </trkpt>
      <trkpt lat="58.722052574157715" lon="16.825196743011475">
        <ele>46.55</ele>
        <time>2025-01-31T21:01:19.316Z</time>
      </trkpt>
      <trkpt lat="58.72228894382715" lon="16.825228929519653">
        <ele>45.85</ele>
        <time>2025-01-31T21:01:36.941Z</time>
      </trkpt>
      <trkpt lat="58.722524642944336" lon="16.825261116027832">
        <ele>45.32</ele>
        <time>2025-01-31T21:01:54.598Z</time>
      </trkpt>
      <trkpt lat="58.72263193130493" lon="16.825368404388428">
        <ele>44.91</ele>
        <time>2025-01-31T21:02:12.271Z</time>
      </trkpt>
      <trkpt lat="58.722825050354004" lon="16.825411319732666">
        <ele>44.55</ele>
        <time>2025-01-31T21:02:29.970Z</time>
      </trkpt>
      <trkpt lat="58.72295379638672" lon="16.8255615234375">
        <ele>44.08</ele>
        <time>2025-01-31T21:02:47.689Z</time>
      </trkpt>
      <trkpt lat="58.723018169403076" lon="16.825861930847168">
        <ele>43.59</ele>
        <time>2025-01-31T21:03:05.431Z</time>
      </trkpt>
      <trkpt lat="58.72310400009155" lon="16.825969219207764">
        <ele>43.2</ele>
        <time>2025-01-31T21:03:23.186Z</time>
      </trkpt>
      <trkpt lat="58.72323299758136" lon="16.826248839497566">
        <ele>42.8</ele>
        <time>2025-01-31T21:03:40.967Z</time>
      </trkpt>
      <trkpt lat="58.72336149215698" lon="16.82652711868286">
        <ele>42.54</ele>
        <time>2025-01-31T21:03:58.774Z</time>
      </trkpt>
      <trkpt lat="58.7233829498291" lon="16.826698780059814">
        <ele>42.27</ele>
        <time>2025-01-31T21:04:16.594Z</time>
      </trkpt>
      <trkpt lat="58.72359752655029" lon="16.826870441436768">
        <ele>42.0</ele>
        <time>2025-01-31T21:04:34.445Z</time>
      </trkpt>
      <trkpt lat="58.72366189956665" lon="16.8270206451416">
        <ele>41.8</ele>
        <time>2025-01-31T21:04:52.309Z</time>
      </trkpt>
      <trkpt lat="58.723769187927246" lon="16.82704210281372">
        <ele>41.48</ele>
        <time>2025-01-31T21:05:10.188Z</time>
      </trkpt>
      <trkpt lat="58.723919643089175" lon="16.82719255797565">
        <ele>41.22</ele>
        <time>2025-01-31T21:05:28.089Z</time>
      </trkpt>
      <trkpt lat="58.724069595336914" lon="16.82734251022339">
        <ele>40.98</ele>
        <time>2025-01-31T21:05:46.013Z</time>
      </trkpt>
      <trkpt lat="58.724068170413375" lon="16.827349299564958">
        <ele>40.81</ele>
        <time>2025-01-31T21:06:03.937Z</time>
      </trkpt>
      <trkpt lat="58.724067164584994" lon="16.82735483162105">
        <ele>40.61</ele>
        <time>2025-01-31T21:06:21.862Z</time>
      </trkpt>
      <trkpt lat="58.72406708076596" lon="16.827355669811368">
        <ele>40.35</ele>
        <time>2025-01-31T21:06:39.787Z</time>
      </trkpt>
      <trkpt lat="58.724033050239086" lon="16.826755022630095">
        <ele>39.87</ele>
        <time>2025-01-31T21:06:57.754Z</time>
      </trkpt>
      <trkpt lat="58.724012430757284" lon="16.82639309205115">
        <ele>39.78</ele>
        <time>2025-01-31T21:07:15.746Z</time>
      </trkpt>
    </trkseg>
  </trk>
</gpx>
